<?xml version="1.0" encoding="UTF-8" standalone="no" ?>
<gpx xmlns="http://www.topografix.com/GPX/1/1" xmlns:xsi="http://www.w3.org/2001/XMLSchema-instance" xsi:schemaLocation="http://www.topografix.com/GPX/1/1 http://www.topografix.com/GPX/1/1/gpx.xsd" version="1.1" creator="VisuGPX - https://www.visugpx.com">
  <metadata>
    <name>Roc d'Azé 45km 2022</name>
  </metadata>
  <trk>
    <name><![CDATA[15414355-46 Km 2022 définitf]]></name>
    <trkseg>
      <trkpt lat="46.43088" lon="4.76379">
        <ele>237</ele>
        <time>2022-08-22T18:22:54Z</time>
      </trkpt>
      <trkpt lat="46.43032" lon="4.76364">
        <ele>237</ele>
        <time>2022-08-22T18:23:07Z</time>
      </trkpt>
      <trkpt lat="46.43023" lon="4.76363">
        <ele>237</ele>
        <time>2022-08-22T18:23:09Z</time>
      </trkpt>
      <trkpt lat="46.43023" lon="4.76412">
        <ele>238</ele>
        <time>2022-08-22T18:23:17Z</time>
      </trkpt>
      <trkpt lat="46.4302" lon="4.76447">
        <ele>240</ele>
        <time>2022-08-22T18:23:23Z</time>
      </trkpt>
      <trkpt lat="46.43015" lon="4.76477">
        <ele>242</ele>
        <time>2022-08-22T18:23:28Z</time>
      </trkpt>
      <trkpt lat="46.43" lon="4.76523">
        <ele>244</ele>
        <time>2022-08-22T18:23:36Z</time>
      </trkpt>
      <trkpt lat="46.42991" lon="4.76536">
        <ele>245</ele>
        <time>2022-08-22T18:23:39Z</time>
      </trkpt>
      <trkpt lat="46.42978" lon="4.76542">
        <ele>245</ele>
        <time>2022-08-22T18:23:42Z</time>
      </trkpt>
      <trkpt lat="46.42905" lon="4.76566">
        <ele>246</ele>
        <time>2022-08-22T18:24:00Z</time>
      </trkpt>
      <trkpt lat="46.42871" lon="4.76574">
        <ele>247</ele>
        <time>2022-08-22T18:24:08Z</time>
      </trkpt>
      <trkpt lat="46.42727" lon="4.7657">
        <ele>246</ele>
        <time>2022-08-22T18:24:41Z</time>
      </trkpt>
      <trkpt lat="46.42708" lon="4.7658">
        <ele>246</ele>
        <time>2022-08-22T18:24:46Z</time>
      </trkpt>
      <trkpt lat="46.42672" lon="4.76607">
        <ele>248</ele>
        <time>2022-08-22T18:24:56Z</time>
      </trkpt>
      <trkpt lat="46.42638" lon="4.76622">
        <ele>248</ele>
        <time>2022-08-22T18:25:04Z</time>
      </trkpt>
      <trkpt lat="46.42601" lon="4.76649">
        <ele>249</ele>
        <time>2022-08-22T18:25:14Z</time>
      </trkpt>
      <trkpt lat="46.4261" lon="4.76707">
        <ele>252</ele>
        <time>2022-08-22T18:25:23Z</time>
      </trkpt>
      <trkpt lat="46.42622" lon="4.76807">
        <ele>257</ele>
        <time>2022-08-22T18:25:40Z</time>
      </trkpt>
      <trkpt lat="46.42626" lon="4.76851">
        <ele>260</ele>
        <time>2022-08-22T18:25:47Z</time>
      </trkpt>
      <trkpt lat="46.42625" lon="4.76877">
        <ele>261</ele>
        <time>2022-08-22T18:25:51Z</time>
      </trkpt>
      <trkpt lat="46.42618" lon="4.76907">
        <ele>263</ele>
        <time>2022-08-22T18:25:56Z</time>
      </trkpt>
      <trkpt lat="46.42591" lon="4.76963">
        <ele>264</ele>
        <time>2022-08-22T18:26:07Z</time>
      </trkpt>
      <trkpt lat="46.42529" lon="4.77118">
        <ele>270</ele>
        <time>2022-08-22T18:26:36Z</time>
      </trkpt>
      <trkpt lat="46.42506" lon="4.77192">
        <ele>276</ele>
        <time>2022-08-22T18:26:49Z</time>
      </trkpt>
      <trkpt lat="46.42494" lon="4.77241">
        <ele>279</ele>
        <time>2022-08-22T18:26:57Z</time>
      </trkpt>
      <trkpt lat="46.4248" lon="4.77329">
        <ele>284</ele>
        <time>2022-08-22T18:27:12Z</time>
      </trkpt>
      <trkpt lat="46.42476" lon="4.77392">
        <ele>287</ele>
        <time>2022-08-22T18:27:22Z</time>
      </trkpt>
      <trkpt lat="46.42616" lon="4.77495">
        <ele>314</ele>
        <time>2022-08-22T18:27:59Z</time>
      </trkpt>
      <trkpt lat="46.42791" lon="4.77627">
        <ele>336</ele>
        <time>2022-08-22T18:28:45Z</time>
      </trkpt>
      <trkpt lat="46.42815" lon="4.77636">
        <ele>338</ele>
        <time>2022-08-22T18:28:50Z</time>
      </trkpt>
      <trkpt lat="46.42841" lon="4.77629">
        <ele>339</ele>
        <time>2022-08-22T18:28:57Z</time>
      </trkpt>
      <trkpt lat="46.42907" lon="4.77605">
        <ele>340</ele>
        <time>2022-08-22T18:29:13Z</time>
      </trkpt>
      <trkpt lat="46.43067" lon="4.77548">
        <ele>347</ele>
        <time>2022-08-22T18:29:51Z</time>
      </trkpt>
      <trkpt lat="46.43075" lon="4.77546">
        <ele>348</ele>
        <time>2022-08-22T18:29:53Z</time>
      </trkpt>
      <trkpt lat="46.43059" lon="4.77379">
        <ele>339</ele>
        <time>2022-08-22T18:30:20Z</time>
      </trkpt>
      <trkpt lat="46.43046" lon="4.77259">
        <ele>327</ele>
        <time>2022-08-22T18:30:40Z</time>
      </trkpt>
      <trkpt lat="46.43015" lon="4.76975">
        <ele>295</ele>
        <time>2022-08-22T18:31:26Z</time>
      </trkpt>
      <trkpt lat="46.43005" lon="4.76957">
        <ele>292</ele>
        <time>2022-08-22T18:31:30Z</time>
      </trkpt>
      <trkpt lat="46.42993" lon="4.76953">
        <ele>290</ele>
        <time>2022-08-22T18:31:32Z</time>
      </trkpt>
      <trkpt lat="46.42979" lon="4.76908">
        <ele>283</ele>
        <time>2022-08-22T18:31:40Z</time>
      </trkpt>
      <trkpt lat="46.43012" lon="4.76904">
        <ele>286</ele>
        <time>2022-08-22T18:31:48Z</time>
      </trkpt>
      <trkpt lat="46.43032" lon="4.76898">
        <ele>287</ele>
        <time>2022-08-22T18:31:53Z</time>
      </trkpt>
      <trkpt lat="46.43073" lon="4.76874">
        <ele>287</ele>
        <time>2022-08-22T18:32:03Z</time>
      </trkpt>
      <trkpt lat="46.43077" lon="4.76872">
        <ele>287</ele>
        <time>2022-08-22T18:32:04Z</time>
      </trkpt>
      <trkpt lat="46.43123" lon="4.76864">
        <ele>290</ele>
        <time>2022-08-22T18:32:15Z</time>
      </trkpt>
      <trkpt lat="46.4316" lon="4.76845">
        <ele>290</ele>
        <time>2022-08-22T18:32:24Z</time>
      </trkpt>
      <trkpt lat="46.4324" lon="4.76843">
        <ele>299</ele>
        <time>2022-08-22T18:32:43Z</time>
      </trkpt>
      <trkpt lat="46.43303" lon="4.76798">
        <ele>294</ele>
        <time>2022-08-22T18:32:59Z</time>
      </trkpt>
      <trkpt lat="46.43358" lon="4.76801">
        <ele>299</ele>
        <time>2022-08-22T18:33:12Z</time>
      </trkpt>
      <trkpt lat="46.43443" lon="4.7682">
        <ele>307</ele>
        <time>2022-08-22T18:33:32Z</time>
      </trkpt>
      <trkpt lat="46.43565" lon="4.7686">
        <ele>308</ele>
        <time>2022-08-22T18:34:01Z</time>
      </trkpt>
      <trkpt lat="46.4357" lon="4.76863">
        <ele>308</ele>
        <time>2022-08-22T18:34:03Z</time>
      </trkpt>
      <trkpt lat="46.43614" lon="4.7689">
        <ele>309</ele>
        <time>2022-08-22T18:34:14Z</time>
      </trkpt>
      <trkpt lat="46.437" lon="4.76954">
        <ele>308</ele>
        <time>2022-08-22T18:34:36Z</time>
      </trkpt>
      <trkpt lat="46.43773" lon="4.77021">
        <ele>306</ele>
        <time>2022-08-22T18:34:57Z</time>
      </trkpt>
      <trkpt lat="46.4385" lon="4.77117">
        <ele>308</ele>
        <time>2022-08-22T18:35:20Z</time>
      </trkpt>
      <trkpt lat="46.43891" lon="4.77168">
        <ele>307</ele>
        <time>2022-08-22T18:35:33Z</time>
      </trkpt>
      <trkpt lat="46.43932" lon="4.7721">
        <ele>305</ele>
        <time>2022-08-22T18:35:45Z</time>
      </trkpt>
      <trkpt lat="46.43957" lon="4.77247">
        <ele>305</ele>
        <time>2022-08-22T18:35:53Z</time>
      </trkpt>
      <trkpt lat="46.43996" lon="4.77293">
        <ele>303</ele>
        <time>2022-08-22T18:36:05Z</time>
      </trkpt>
      <trkpt lat="46.44017" lon="4.77338">
        <ele>305</ele>
        <time>2022-08-22T18:36:13Z</time>
      </trkpt>
      <trkpt lat="46.4404" lon="4.77374">
        <ele>305</ele>
        <time>2022-08-22T18:36:21Z</time>
      </trkpt>
      <trkpt lat="46.44067" lon="4.77396">
        <ele>303</ele>
        <time>2022-08-22T18:36:29Z</time>
      </trkpt>
      <trkpt lat="46.44111" lon="4.77408">
        <ele>299</ele>
        <time>2022-08-22T18:36:39Z</time>
      </trkpt>
      <trkpt lat="46.44149" lon="4.77425">
        <ele>297</ele>
        <time>2022-08-22T18:36:48Z</time>
      </trkpt>
      <trkpt lat="46.44175" lon="4.77448">
        <ele>297</ele>
        <time>2022-08-22T18:36:55Z</time>
      </trkpt>
      <trkpt lat="46.44182" lon="4.77457">
        <ele>298</ele>
        <time>2022-08-22T18:36:58Z</time>
      </trkpt>
      <trkpt lat="46.44207" lon="4.7749">
        <ele>298</ele>
        <time>2022-08-22T18:37:06Z</time>
      </trkpt>
      <trkpt lat="46.44224" lon="4.77524">
        <ele>299</ele>
        <time>2022-08-22T18:37:12Z</time>
      </trkpt>
      <trkpt lat="46.44209" lon="4.77519">
        <ele>300</ele>
        <time>2022-08-22T18:37:16Z</time>
      </trkpt>
      <trkpt lat="46.44172" lon="4.77496">
        <ele>302</ele>
        <time>2022-08-22T18:37:25Z</time>
      </trkpt>
      <trkpt lat="46.44148" lon="4.77492">
        <ele>303</ele>
        <time>2022-08-22T18:37:31Z</time>
      </trkpt>
      <trkpt lat="46.44133" lon="4.77489">
        <ele>303</ele>
        <time>2022-08-22T18:37:34Z</time>
      </trkpt>
      <trkpt lat="46.44115" lon="4.7748">
        <ele>304</ele>
        <time>2022-08-22T18:37:39Z</time>
      </trkpt>
      <trkpt lat="46.44084" lon="4.77481">
        <ele>305</ele>
        <time>2022-08-22T18:37:46Z</time>
      </trkpt>
      <trkpt lat="46.44062" lon="4.77494">
        <ele>309</ele>
        <time>2022-08-22T18:37:52Z</time>
      </trkpt>
      <trkpt lat="46.43992" lon="4.77455">
        <ele>318</ele>
        <time>2022-08-22T18:38:09Z</time>
      </trkpt>
      <trkpt lat="46.43902" lon="4.77457">
        <ele>328</ele>
        <time>2022-08-22T18:38:30Z</time>
      </trkpt>
      <trkpt lat="46.43863" lon="4.77461">
        <ele>335</ele>
        <time>2022-08-22T18:38:39Z</time>
      </trkpt>
      <trkpt lat="46.43813" lon="4.77738">
        <ele>346</ele>
        <time>2022-08-22T18:39:25Z</time>
      </trkpt>
      <trkpt lat="46.44071" lon="4.77784">
        <ele>320</ele>
        <time>2022-08-22T18:40:26Z</time>
      </trkpt>
      <trkpt lat="46.44336" lon="4.77826">
        <ele>296</ele>
        <time>2022-08-22T18:41:28Z</time>
      </trkpt>
      <trkpt lat="46.44354" lon="4.77865">
        <ele>293</ele>
        <time>2022-08-22T18:41:36Z</time>
      </trkpt>
      <trkpt lat="46.44379" lon="4.77911">
        <ele>289</ele>
        <time>2022-08-22T18:41:45Z</time>
      </trkpt>
      <trkpt lat="46.44391" lon="4.77965">
        <ele>286</ele>
        <time>2022-08-22T18:41:55Z</time>
      </trkpt>
      <trkpt lat="46.44394" lon="4.77979">
        <ele>285</ele>
        <time>2022-08-22T18:41:57Z</time>
      </trkpt>
      <trkpt lat="46.44389" lon="4.78055">
        <ele>286</ele>
        <time>2022-08-22T18:42:09Z</time>
      </trkpt>
      <trkpt lat="46.44386" lon="4.78162">
        <ele>285</ele>
        <time>2022-08-22T18:42:26Z</time>
      </trkpt>
      <trkpt lat="46.44389" lon="4.7827">
        <ele>282</ele>
        <time>2022-08-22T18:42:44Z</time>
      </trkpt>
      <trkpt lat="46.44358" lon="4.78237">
        <ele>288</ele>
        <time>2022-08-22T18:42:53Z</time>
      </trkpt>
      <trkpt lat="46.44316" lon="4.78203">
        <ele>294</ele>
        <time>2022-08-22T18:43:04Z</time>
      </trkpt>
      <trkpt lat="46.44292" lon="4.7817">
        <ele>297</ele>
        <time>2022-08-22T18:43:12Z</time>
      </trkpt>
      <trkpt lat="46.4428" lon="4.7815">
        <ele>299</ele>
        <time>2022-08-22T18:43:16Z</time>
      </trkpt>
      <trkpt lat="46.44256" lon="4.78136">
        <ele>302</ele>
        <time>2022-08-22T18:43:22Z</time>
      </trkpt>
      <trkpt lat="46.44226" lon="4.78126">
        <ele>304</ele>
        <time>2022-08-22T18:43:29Z</time>
      </trkpt>
      <trkpt lat="46.44179" lon="4.78122">
        <ele>308</ele>
        <time>2022-08-22T18:43:40Z</time>
      </trkpt>
      <trkpt lat="46.44138" lon="4.78114">
        <ele>311</ele>
        <time>2022-08-22T18:43:50Z</time>
      </trkpt>
      <trkpt lat="46.44062" lon="4.78079">
        <ele>315</ele>
        <time>2022-08-22T18:44:08Z</time>
      </trkpt>
      <trkpt lat="46.4405" lon="4.78057">
        <ele>317</ele>
        <time>2022-08-22T18:44:13Z</time>
      </trkpt>
      <trkpt lat="46.44042" lon="4.78036">
        <ele>318</ele>
        <time>2022-08-22T18:44:17Z</time>
      </trkpt>
      <trkpt lat="46.44009" lon="4.7803">
        <ele>318</ele>
        <time>2022-08-22T18:44:25Z</time>
      </trkpt>
      <trkpt lat="46.43977" lon="4.78035">
        <ele>318</ele>
        <time>2022-08-22T18:44:32Z</time>
      </trkpt>
      <trkpt lat="46.43843" lon="4.78039">
        <ele>321</ele>
        <time>2022-08-22T18:45:03Z</time>
      </trkpt>
      <trkpt lat="46.43797" lon="4.78037">
        <ele>325</ele>
        <time>2022-08-22T18:45:14Z</time>
      </trkpt>
      <trkpt lat="46.43776" lon="4.78027">
        <ele>328</ele>
        <time>2022-08-22T18:45:19Z</time>
      </trkpt>
      <trkpt lat="46.43769" lon="4.78009">
        <ele>331</ele>
        <time>2022-08-22T18:45:23Z</time>
      </trkpt>
      <trkpt lat="46.43775" lon="4.77951">
        <ele>336</ele>
        <time>2022-08-22T18:45:32Z</time>
      </trkpt>
      <trkpt lat="46.43797" lon="4.77811">
        <ele>343</ele>
        <time>2022-08-22T18:45:55Z</time>
      </trkpt>
      <trkpt lat="46.43805" lon="4.77762">
        <ele>345</ele>
        <time>2022-08-22T18:46:03Z</time>
      </trkpt>
      <trkpt lat="46.43807" lon="4.77741">
        <ele>346</ele>
        <time>2022-08-22T18:46:07Z</time>
      </trkpt>
      <trkpt lat="46.43729" lon="4.77725">
        <ele>352</ele>
        <time>2022-08-22T18:46:25Z</time>
      </trkpt>
      <trkpt lat="46.437" lon="4.77716">
        <ele>354</ele>
        <time>2022-08-22T18:46:32Z</time>
      </trkpt>
      <trkpt lat="46.43656" lon="4.77696">
        <ele>357</ele>
        <time>2022-08-22T18:46:43Z</time>
      </trkpt>
      <trkpt lat="46.43591" lon="4.77651">
        <ele>360</ele>
        <time>2022-08-22T18:47:00Z</time>
      </trkpt>
      <trkpt lat="46.43542" lon="4.77622">
        <ele>359</ele>
        <time>2022-08-22T18:47:12Z</time>
      </trkpt>
      <trkpt lat="46.43514" lon="4.77593">
        <ele>360</ele>
        <time>2022-08-22T18:47:20Z</time>
      </trkpt>
      <trkpt lat="46.43485" lon="4.77575">
        <ele>360</ele>
        <time>2022-08-22T18:47:27Z</time>
      </trkpt>
      <trkpt lat="46.43482" lon="4.77568">
        <ele>360</ele>
        <time>2022-08-22T18:47:29Z</time>
      </trkpt>
      <trkpt lat="46.43424" lon="4.7764">
        <ele>357</ele>
        <time>2022-08-22T18:47:47Z</time>
      </trkpt>
      <trkpt lat="46.43359" lon="4.77643">
        <ele>355</ele>
        <time>2022-08-22T18:48:02Z</time>
      </trkpt>
      <trkpt lat="46.43329" lon="4.77648">
        <ele>353</ele>
        <time>2022-08-22T18:48:09Z</time>
      </trkpt>
      <trkpt lat="46.43268" lon="4.77707">
        <ele>349</ele>
        <time>2022-08-22T18:48:26Z</time>
      </trkpt>
      <trkpt lat="46.43176" lon="4.77784">
        <ele>345</ele>
        <time>2022-08-22T18:48:51Z</time>
      </trkpt>
      <trkpt lat="46.43166" lon="4.77905">
        <ele>333</ele>
        <time>2022-08-22T18:49:10Z</time>
      </trkpt>
      <trkpt lat="46.43146" lon="4.77901">
        <ele>333</ele>
        <time>2022-08-22T18:49:15Z</time>
      </trkpt>
      <trkpt lat="46.43136" lon="4.77885">
        <ele>335</ele>
        <time>2022-08-22T18:49:19Z</time>
      </trkpt>
      <trkpt lat="46.43097" lon="4.77856">
        <ele>338</ele>
        <time>2022-08-22T18:49:29Z</time>
      </trkpt>
      <trkpt lat="46.43052" lon="4.77849">
        <ele>338</ele>
        <time>2022-08-22T18:49:39Z</time>
      </trkpt>
      <trkpt lat="46.43041" lon="4.77851">
        <ele>338</ele>
        <time>2022-08-22T18:49:42Z</time>
      </trkpt>
      <trkpt lat="46.43016" lon="4.77856">
        <ele>337</ele>
        <time>2022-08-22T18:49:48Z</time>
      </trkpt>
      <trkpt lat="46.42984" lon="4.77871">
        <ele>335</ele>
        <time>2022-08-22T18:49:56Z</time>
      </trkpt>
      <trkpt lat="46.42908" lon="4.77885">
        <ele>334</ele>
        <time>2022-08-22T18:50:14Z</time>
      </trkpt>
      <trkpt lat="46.42817" lon="4.77886">
        <ele>331</ele>
        <time>2022-08-22T18:50:35Z</time>
      </trkpt>
      <trkpt lat="46.42762" lon="4.77875">
        <ele>327</ele>
        <time>2022-08-22T18:50:48Z</time>
      </trkpt>
      <trkpt lat="46.42732" lon="4.77847">
        <ele>325</ele>
        <time>2022-08-22T18:50:56Z</time>
      </trkpt>
      <trkpt lat="46.42721" lon="4.77822">
        <ele>325</ele>
        <time>2022-08-22T18:51:01Z</time>
      </trkpt>
      <trkpt lat="46.42692" lon="4.77755">
        <ele>323</ele>
        <time>2022-08-22T18:51:14Z</time>
      </trkpt>
      <trkpt lat="46.42665" lon="4.77716">
        <ele>321</ele>
        <time>2022-08-22T18:51:23Z</time>
      </trkpt>
      <trkpt lat="46.42648" lon="4.77637">
        <ele>321</ele>
        <time>2022-08-22T18:51:36Z</time>
      </trkpt>
      <trkpt lat="46.42631" lon="4.77583">
        <ele>319</ele>
        <time>2022-08-22T18:51:45Z</time>
      </trkpt>
      <trkpt lat="46.4261" lon="4.77558">
        <ele>315</ele>
        <time>2022-08-22T18:51:52Z</time>
      </trkpt>
      <trkpt lat="46.42569" lon="4.77534">
        <ele>308</ele>
        <time>2022-08-22T18:52:02Z</time>
      </trkpt>
      <trkpt lat="46.42542" lon="4.77514">
        <ele>302</ele>
        <time>2022-08-22T18:52:09Z</time>
      </trkpt>
      <trkpt lat="46.42554" lon="4.77591">
        <ele>304</ele>
        <time>2022-08-22T18:52:22Z</time>
      </trkpt>
      <trkpt lat="46.4264" lon="4.7774">
        <ele>312</ele>
        <time>2022-08-22T18:52:53Z</time>
      </trkpt>
      <trkpt lat="46.42676" lon="4.77859">
        <ele>310</ele>
        <time>2022-08-22T18:53:14Z</time>
      </trkpt>
      <trkpt lat="46.42769" lon="4.77994">
        <ele>307</ele>
        <time>2022-08-22T18:53:45Z</time>
      </trkpt>
      <trkpt lat="46.42769" lon="4.78025">
        <ele>300</ele>
        <time>2022-08-22T18:53:50Z</time>
      </trkpt>
      <trkpt lat="46.42874" lon="4.78056">
        <ele>304</ele>
        <time>2022-08-22T18:54:15Z</time>
      </trkpt>
      <trkpt lat="46.42887" lon="4.78182">
        <ele>278</ele>
        <time>2022-08-22T18:54:35Z</time>
      </trkpt>
      <trkpt lat="46.42835" lon="4.78412">
        <ele>250</ele>
        <time>2022-08-22T18:55:14Z</time>
      </trkpt>
      <trkpt lat="46.42813" lon="4.78433">
        <ele>249</ele>
        <time>2022-08-22T18:55:20Z</time>
      </trkpt>
      <trkpt lat="46.42797" lon="4.78444">
        <ele>248</ele>
        <time>2022-08-22T18:55:25Z</time>
      </trkpt>
      <trkpt lat="46.42776" lon="4.78431">
        <ele>248</ele>
        <time>2022-08-22T18:55:30Z</time>
      </trkpt>
      <trkpt lat="46.42753" lon="4.78422">
        <ele>248</ele>
        <time>2022-08-22T18:55:35Z</time>
      </trkpt>
      <trkpt lat="46.42738" lon="4.78432">
        <ele>247</ele>
        <time>2022-08-22T18:55:39Z</time>
      </trkpt>
      <trkpt lat="46.42731" lon="4.7846">
        <ele>244</ele>
        <time>2022-08-22T18:55:44Z</time>
      </trkpt>
      <trkpt lat="46.42705" lon="4.78523">
        <ele>240</ele>
        <time>2022-08-22T18:55:56Z</time>
      </trkpt>
      <trkpt lat="46.42691" lon="4.78554">
        <ele>239</ele>
        <time>2022-08-22T18:56:02Z</time>
      </trkpt>
      <trkpt lat="46.42677" lon="4.78597">
        <ele>238</ele>
        <time>2022-08-22T18:56:10Z</time>
      </trkpt>
      <trkpt lat="46.42661" lon="4.78656">
        <ele>238</ele>
        <time>2022-08-22T18:56:20Z</time>
      </trkpt>
      <trkpt lat="46.42637" lon="4.78759">
        <ele>236</ele>
        <time>2022-08-22T18:56:37Z</time>
      </trkpt>
      <trkpt lat="46.42641" lon="4.78789">
        <ele>234</ele>
        <time>2022-08-22T18:56:42Z</time>
      </trkpt>
      <trkpt lat="46.42645" lon="4.78887">
        <ele>231</ele>
        <time>2022-08-22T18:56:58Z</time>
      </trkpt>
      <trkpt lat="46.42648" lon="4.78935">
        <ele>230</ele>
        <time>2022-08-22T18:57:06Z</time>
      </trkpt>
      <trkpt lat="46.42648" lon="4.78976">
        <ele>230</ele>
        <time>2022-08-22T18:57:12Z</time>
      </trkpt>
      <trkpt lat="46.4265" lon="4.7902">
        <ele>229</ele>
        <time>2022-08-22T18:57:19Z</time>
      </trkpt>
      <trkpt lat="46.42662" lon="4.79106">
        <ele>228</ele>
        <time>2022-08-22T18:57:34Z</time>
      </trkpt>
      <trkpt lat="46.42662" lon="4.79268">
        <ele>229</ele>
        <time>2022-08-22T18:58:00Z</time>
      </trkpt>
      <trkpt lat="46.42664" lon="4.7932">
        <ele>231</ele>
        <time>2022-08-22T18:58:08Z</time>
      </trkpt>
      <trkpt lat="46.42673" lon="4.79419">
        <ele>233</ele>
        <time>2022-08-22T18:58:24Z</time>
      </trkpt>
      <trkpt lat="46.42673" lon="4.79446">
        <ele>232</ele>
        <time>2022-08-22T18:58:28Z</time>
      </trkpt>
      <trkpt lat="46.4267" lon="4.7946">
        <ele>231</ele>
        <time>2022-08-22T18:58:31Z</time>
      </trkpt>
      <trkpt lat="46.42581" lon="4.79597">
        <ele>229</ele>
        <time>2022-08-22T18:59:01Z</time>
      </trkpt>
      <trkpt lat="46.4254" lon="4.79683">
        <ele>227</ele>
        <time>2022-08-22T18:59:18Z</time>
      </trkpt>
      <trkpt lat="46.42504" lon="4.79772">
        <ele>229</ele>
        <time>2022-08-22T18:59:35Z</time>
      </trkpt>
      <trkpt lat="46.42492" lon="4.7981">
        <ele>230</ele>
        <time>2022-08-22T18:59:41Z</time>
      </trkpt>
      <trkpt lat="46.42413" lon="4.80112">
        <ele>242</ele>
        <time>2022-08-22T19:00:33Z</time>
      </trkpt>
      <trkpt lat="46.42403" lon="4.80141">
        <ele>243</ele>
        <time>2022-08-22T19:00:38Z</time>
      </trkpt>
      <trkpt lat="46.42407" lon="4.80142">
        <ele>243</ele>
        <time>2022-08-22T19:00:39Z</time>
      </trkpt>
      <trkpt lat="46.42384" lon="4.80322">
        <ele>250</ele>
        <time>2022-08-22T19:01:09Z</time>
      </trkpt>
      <trkpt lat="46.42371" lon="4.80503">
        <ele>248</ele>
        <time>2022-08-22T19:01:38Z</time>
      </trkpt>
      <trkpt lat="46.42163" lon="4.80617">
        <ele>228</ele>
        <time>2022-08-22T19:02:30Z</time>
      </trkpt>
      <trkpt lat="46.42085" lon="4.80673">
        <ele>225</ele>
        <time>2022-08-22T19:02:50Z</time>
      </trkpt>
      <trkpt lat="46.42037" lon="4.80771">
        <ele>222</ele>
        <time>2022-08-22T19:03:10Z</time>
      </trkpt>
      <trkpt lat="46.41999" lon="4.80849">
        <ele>218</ele>
        <time>2022-08-22T19:03:25Z</time>
      </trkpt>
      <trkpt lat="46.41949" lon="4.80849">
        <ele>217</ele>
        <time>2022-08-22T19:03:37Z</time>
      </trkpt>
      <trkpt lat="46.41917" lon="4.80854">
        <ele>217</ele>
        <time>2022-08-22T19:03:44Z</time>
      </trkpt>
      <trkpt lat="46.41906" lon="4.80859">
        <ele>216</ele>
        <time>2022-08-22T19:03:47Z</time>
      </trkpt>
      <trkpt lat="46.41894" lon="4.80871">
        <ele>216</ele>
        <time>2022-08-22T19:03:50Z</time>
      </trkpt>
      <trkpt lat="46.41896" lon="4.80864">
        <ele>216</ele>
        <time>2022-08-22T19:03:52Z</time>
      </trkpt>
      <trkpt lat="46.41882" lon="4.80921">
        <ele>214</ele>
        <time>2022-08-22T19:04:01Z</time>
      </trkpt>
      <trkpt lat="46.41853" lon="4.81013">
        <ele>217</ele>
        <time>2022-08-22T19:04:18Z</time>
      </trkpt>
      <trkpt lat="46.41844" lon="4.8106">
        <ele>222</ele>
        <time>2022-08-22T19:04:26Z</time>
      </trkpt>
      <trkpt lat="46.41831" lon="4.81082">
        <ele>223</ele>
        <time>2022-08-22T19:04:30Z</time>
      </trkpt>
      <trkpt lat="46.41817" lon="4.81093">
        <ele>226</ele>
        <time>2022-08-22T19:04:34Z</time>
      </trkpt>
      <trkpt lat="46.41811" lon="4.81114">
        <ele>229</ele>
        <time>2022-08-22T19:04:38Z</time>
      </trkpt>
      <trkpt lat="46.41814" lon="4.81128">
        <ele>230</ele>
        <time>2022-08-22T19:04:40Z</time>
      </trkpt>
      <trkpt lat="46.41826" lon="4.81152">
        <ele>230</ele>
        <time>2022-08-22T19:04:45Z</time>
      </trkpt>
      <trkpt lat="46.41808" lon="4.81158">
        <ele>233</ele>
        <time>2022-08-22T19:04:49Z</time>
      </trkpt>
      <trkpt lat="46.41795" lon="4.81153">
        <ele>234</ele>
        <time>2022-08-22T19:04:52Z</time>
      </trkpt>
      <trkpt lat="46.41784" lon="4.81147">
        <ele>235</ele>
        <time>2022-08-22T19:04:55Z</time>
      </trkpt>
      <trkpt lat="46.41757" lon="4.81107">
        <ele>236</ele>
        <time>2022-08-22T19:05:04Z</time>
      </trkpt>
      <trkpt lat="46.41749" lon="4.81106">
        <ele>237</ele>
        <time>2022-08-22T19:05:06Z</time>
      </trkpt>
      <trkpt lat="46.41701" lon="4.81175">
        <ele>247</ele>
        <time>2022-08-22T19:05:22Z</time>
      </trkpt>
      <trkpt lat="46.417" lon="4.8118">
        <ele>248</ele>
        <time>2022-08-22T19:05:22Z</time>
      </trkpt>
      <trkpt lat="46.41679" lon="4.81155">
        <ele>249</ele>
        <time>2022-08-22T19:05:29Z</time>
      </trkpt>
      <trkpt lat="46.41652" lon="4.81115">
        <ele>250</ele>
        <time>2022-08-22T19:05:38Z</time>
      </trkpt>
      <trkpt lat="46.4165" lon="4.81096">
        <ele>250</ele>
        <time>2022-08-22T19:05:41Z</time>
      </trkpt>
      <trkpt lat="46.41639" lon="4.81043">
        <ele>245</ele>
        <time>2022-08-22T19:05:50Z</time>
      </trkpt>
      <trkpt lat="46.41633" lon="4.8103">
        <ele>244</ele>
        <time>2022-08-22T19:05:52Z</time>
      </trkpt>
      <trkpt lat="46.41625" lon="4.81023">
        <ele>245</ele>
        <time>2022-08-22T19:05:54Z</time>
      </trkpt>
      <trkpt lat="46.41614" lon="4.81018">
        <ele>246</ele>
        <time>2022-08-22T19:05:57Z</time>
      </trkpt>
      <trkpt lat="46.41569" lon="4.81006">
        <ele>251</ele>
        <time>2022-08-22T19:06:08Z</time>
      </trkpt>
      <trkpt lat="46.41554" lon="4.81">
        <ele>251</ele>
        <time>2022-08-22T19:06:11Z</time>
      </trkpt>
      <trkpt lat="46.41547" lon="4.80997">
        <ele>251</ele>
        <time>2022-08-22T19:06:13Z</time>
      </trkpt>
      <trkpt lat="46.41513" lon="4.80973">
        <ele>248</ele>
        <time>2022-08-22T19:06:22Z</time>
      </trkpt>
      <trkpt lat="46.41498" lon="4.80966">
        <ele>248</ele>
        <time>2022-08-22T19:06:26Z</time>
      </trkpt>
      <trkpt lat="46.41481" lon="4.80953">
        <ele>248</ele>
        <time>2022-08-22T19:06:30Z</time>
      </trkpt>
      <trkpt lat="46.41454" lon="4.80942">
        <ele>249</ele>
        <time>2022-08-22T19:06:37Z</time>
      </trkpt>
      <trkpt lat="46.41386" lon="4.80918">
        <ele>255</ele>
        <time>2022-08-22T19:06:53Z</time>
      </trkpt>
      <trkpt lat="46.41304" lon="4.80853">
        <ele>259</ele>
        <time>2022-08-22T19:07:15Z</time>
      </trkpt>
      <trkpt lat="46.41257" lon="4.80828">
        <ele>267</ele>
        <time>2022-08-22T19:07:27Z</time>
      </trkpt>
      <trkpt lat="46.41247" lon="4.80819">
        <ele>267</ele>
        <time>2022-08-22T19:07:29Z</time>
      </trkpt>
      <trkpt lat="46.41233" lon="4.80817">
        <ele>268</ele>
        <time>2022-08-22T19:07:33Z</time>
      </trkpt>
      <trkpt lat="46.41203" lon="4.80797">
        <ele>271</ele>
        <time>2022-08-22T19:07:40Z</time>
      </trkpt>
      <trkpt lat="46.41019" lon="4.80689">
        <ele>286</ele>
        <time>2022-08-22T19:08:27Z</time>
      </trkpt>
      <trkpt lat="46.40718" lon="4.80512">
        <ele>277</ele>
        <time>2022-08-22T19:09:43Z</time>
      </trkpt>
      <trkpt lat="46.40687" lon="4.80489">
        <ele>274</ele>
        <time>2022-08-22T19:09:51Z</time>
      </trkpt>
      <trkpt lat="46.4064" lon="4.80551">
        <ele>264</ele>
        <time>2022-08-22T19:10:06Z</time>
      </trkpt>
      <trkpt lat="46.40594" lon="4.80712">
        <ele>247</ele>
        <time>2022-08-22T19:10:34Z</time>
      </trkpt>
      <trkpt lat="46.40591" lon="4.80708">
        <ele>247</ele>
        <time>2022-08-22T19:10:35Z</time>
      </trkpt>
      <trkpt lat="46.4051" lon="4.80615">
        <ele>242</ele>
        <time>2022-08-22T19:10:59Z</time>
      </trkpt>
      <trkpt lat="46.40449" lon="4.80525">
        <ele>238</ele>
        <time>2022-08-22T19:11:19Z</time>
      </trkpt>
      <trkpt lat="46.40447" lon="4.80522">
        <ele>238</ele>
        <time>2022-08-22T19:11:20Z</time>
      </trkpt>
      <trkpt lat="46.40441" lon="4.80521">
        <ele>237</ele>
        <time>2022-08-22T19:11:21Z</time>
      </trkpt>
      <trkpt lat="46.40438" lon="4.80539">
        <ele>236</ele>
        <time>2022-08-22T19:11:24Z</time>
      </trkpt>
      <trkpt lat="46.4044" lon="4.80582">
        <ele>235</ele>
        <time>2022-08-22T19:11:31Z</time>
      </trkpt>
      <trkpt lat="46.40408" lon="4.80677">
        <ele>226</ele>
        <time>2022-08-22T19:11:48Z</time>
      </trkpt>
      <trkpt lat="46.4039" lon="4.8074">
        <ele>222</ele>
        <time>2022-08-22T19:11:59Z</time>
      </trkpt>
      <trkpt lat="46.40383" lon="4.80772">
        <ele>221</ele>
        <time>2022-08-22T19:12:04Z</time>
      </trkpt>
      <trkpt lat="46.40406" lon="4.80785">
        <ele>223</ele>
        <time>2022-08-22T19:12:10Z</time>
      </trkpt>
      <trkpt lat="46.40387" lon="4.80903">
        <ele>219</ele>
        <time>2022-08-22T19:12:30Z</time>
      </trkpt>
      <trkpt lat="46.40345" lon="4.81073">
        <ele>216</ele>
        <time>2022-08-22T19:12:59Z</time>
      </trkpt>
      <trkpt lat="46.40321" lon="4.81139">
        <ele>216</ele>
        <time>2022-08-22T19:13:11Z</time>
      </trkpt>
      <trkpt lat="46.40102" lon="4.81035">
        <ele>210</ele>
        <time>2022-08-22T19:14:05Z</time>
      </trkpt>
      <trkpt lat="46.39996" lon="4.81411">
        <ele>209</ele>
        <time>2022-08-22T19:15:10Z</time>
      </trkpt>
      <trkpt lat="46.39954" lon="4.8156">
        <ele>208</ele>
        <time>2022-08-22T19:15:36Z</time>
      </trkpt>
      <trkpt lat="46.3982" lon="4.81511">
        <ele>208</ele>
        <time>2022-08-22T19:16:08Z</time>
      </trkpt>
      <trkpt lat="46.39578" lon="4.81423">
        <ele>196</ele>
        <time>2022-08-22T19:17:06Z</time>
      </trkpt>
      <trkpt lat="46.39559" lon="4.81464">
        <ele>196</ele>
        <time>2022-08-22T19:17:14Z</time>
      </trkpt>
      <trkpt lat="46.39552" lon="4.81453">
        <ele>196</ele>
        <time>2022-08-22T19:17:17Z</time>
      </trkpt>
      <trkpt lat="46.39542" lon="4.81426">
        <ele>196</ele>
        <time>2022-08-22T19:17:22Z</time>
      </trkpt>
      <trkpt lat="46.39535" lon="4.81417">
        <ele>195</ele>
        <time>2022-08-22T19:17:24Z</time>
      </trkpt>
      <trkpt lat="46.39507" lon="4.81396">
        <ele>195</ele>
        <time>2022-08-22T19:17:31Z</time>
      </trkpt>
      <trkpt lat="46.39502" lon="4.81389">
        <ele>195</ele>
        <time>2022-08-22T19:17:33Z</time>
      </trkpt>
      <trkpt lat="46.39481" lon="4.81352">
        <ele>195</ele>
        <time>2022-08-22T19:17:41Z</time>
      </trkpt>
      <trkpt lat="46.39347" lon="4.81036">
        <ele>200</ele>
        <time>2022-08-22T19:18:40Z</time>
      </trkpt>
      <trkpt lat="46.39379" lon="4.81022">
        <ele>199</ele>
        <time>2022-08-22T19:18:48Z</time>
      </trkpt>
      <trkpt lat="46.39406" lon="4.81006">
        <ele>198</ele>
        <time>2022-08-22T19:18:55Z</time>
      </trkpt>
      <trkpt lat="46.39463" lon="4.8096">
        <ele>197</ele>
        <time>2022-08-22T19:19:10Z</time>
      </trkpt>
      <trkpt lat="46.39496" lon="4.80921">
        <ele>197</ele>
        <time>2022-08-22T19:19:20Z</time>
      </trkpt>
      <trkpt lat="46.39501" lon="4.80915">
        <ele>197</ele>
        <time>2022-08-22T19:19:22Z</time>
      </trkpt>
      <trkpt lat="46.39529" lon="4.80896">
        <ele>197</ele>
        <time>2022-08-22T19:19:29Z</time>
      </trkpt>
      <trkpt lat="46.39557" lon="4.80872">
        <ele>198</ele>
        <time>2022-08-22T19:19:37Z</time>
      </trkpt>
      <trkpt lat="46.39564" lon="4.80861">
        <ele>198</ele>
        <time>2022-08-22T19:19:39Z</time>
      </trkpt>
      <trkpt lat="46.39572" lon="4.80843">
        <ele>199</ele>
        <time>2022-08-22T19:19:42Z</time>
      </trkpt>
      <trkpt lat="46.39581" lon="4.80812">
        <ele>200</ele>
        <time>2022-08-22T19:19:48Z</time>
      </trkpt>
      <trkpt lat="46.3959" lon="4.8076">
        <ele>201</ele>
        <time>2022-08-22T19:19:56Z</time>
      </trkpt>
      <trkpt lat="46.39585" lon="4.80738">
        <ele>202</ele>
        <time>2022-08-22T19:20:00Z</time>
      </trkpt>
      <trkpt lat="46.39576" lon="4.8074">
        <ele>203</ele>
        <time>2022-08-22T19:20:02Z</time>
      </trkpt>
      <trkpt lat="46.39521" lon="4.80694">
        <ele>213</ele>
        <time>2022-08-22T19:20:17Z</time>
      </trkpt>
      <trkpt lat="46.39504" lon="4.80686">
        <ele>216</ele>
        <time>2022-08-22T19:20:21Z</time>
      </trkpt>
      <trkpt lat="46.39475" lon="4.80679">
        <ele>218</ele>
        <time>2022-08-22T19:20:28Z</time>
      </trkpt>
      <trkpt lat="46.39447" lon="4.80665">
        <ele>220</ele>
        <time>2022-08-22T19:20:35Z</time>
      </trkpt>
      <trkpt lat="46.39429" lon="4.80654">
        <ele>221</ele>
        <time>2022-08-22T19:20:40Z</time>
      </trkpt>
      <trkpt lat="46.39417" lon="4.80637">
        <ele>223</ele>
        <time>2022-08-22T19:20:44Z</time>
      </trkpt>
      <trkpt lat="46.39417" lon="4.80631">
        <ele>223</ele>
        <time>2022-08-22T19:20:45Z</time>
      </trkpt>
      <trkpt lat="46.39413" lon="4.80607">
        <ele>226</ele>
        <time>2022-08-22T19:20:49Z</time>
      </trkpt>
      <trkpt lat="46.39414" lon="4.80594">
        <ele>227</ele>
        <time>2022-08-22T19:20:51Z</time>
      </trkpt>
      <trkpt lat="46.39436" lon="4.8053">
        <ele>228</ele>
        <time>2022-08-22T19:21:02Z</time>
      </trkpt>
      <trkpt lat="46.39448" lon="4.80528">
        <ele>228</ele>
        <time>2022-08-22T19:21:05Z</time>
      </trkpt>
      <trkpt lat="46.39432" lon="4.80462">
        <ele>230</ele>
        <time>2022-08-22T19:21:16Z</time>
      </trkpt>
      <trkpt lat="46.3942" lon="4.80372">
        <ele>235</ele>
        <time>2022-08-22T19:21:31Z</time>
      </trkpt>
      <trkpt lat="46.39419" lon="4.80357">
        <ele>236</ele>
        <time>2022-08-22T19:21:33Z</time>
      </trkpt>
      <trkpt lat="46.39403" lon="4.8029">
        <ele>242</ele>
        <time>2022-08-22T19:21:45Z</time>
      </trkpt>
      <trkpt lat="46.39388" lon="4.80252">
        <ele>245</ele>
        <time>2022-08-22T19:21:52Z</time>
      </trkpt>
      <trkpt lat="46.39325" lon="4.80158">
        <ele>258</ele>
        <time>2022-08-22T19:22:13Z</time>
      </trkpt>
      <trkpt lat="46.39248" lon="4.8008">
        <ele>267</ele>
        <time>2022-08-22T19:22:35Z</time>
      </trkpt>
      <trkpt lat="46.39232" lon="4.80053">
        <ele>268</ele>
        <time>2022-08-22T19:22:41Z</time>
      </trkpt>
      <trkpt lat="46.39214" lon="4.80013">
        <ele>270</ele>
        <time>2022-08-22T19:22:48Z</time>
      </trkpt>
      <trkpt lat="46.39194" lon="4.79985">
        <ele>270</ele>
        <time>2022-08-22T19:22:55Z</time>
      </trkpt>
      <trkpt lat="46.39186" lon="4.79979">
        <ele>270</ele>
        <time>2022-08-22T19:22:57Z</time>
      </trkpt>
      <trkpt lat="46.39139" lon="4.79957">
        <ele>271</ele>
        <time>2022-08-22T19:23:08Z</time>
      </trkpt>
      <trkpt lat="46.39115" lon="4.79956">
        <ele>272</ele>
        <time>2022-08-22T19:23:14Z</time>
      </trkpt>
      <trkpt lat="46.39098" lon="4.79951">
        <ele>272</ele>
        <time>2022-08-22T19:23:18Z</time>
      </trkpt>
      <trkpt lat="46.39082" lon="4.79942">
        <ele>273</ele>
        <time>2022-08-22T19:23:22Z</time>
      </trkpt>
      <trkpt lat="46.39071" lon="4.79925">
        <ele>273</ele>
        <time>2022-08-22T19:23:26Z</time>
      </trkpt>
      <trkpt lat="46.39061" lon="4.79916">
        <ele>274</ele>
        <time>2022-08-22T19:23:29Z</time>
      </trkpt>
      <trkpt lat="46.39047" lon="4.79908">
        <ele>273</ele>
        <time>2022-08-22T19:23:32Z</time>
      </trkpt>
      <trkpt lat="46.38981" lon="4.79888">
        <ele>275</ele>
        <time>2022-08-22T19:23:48Z</time>
      </trkpt>
      <trkpt lat="46.38922" lon="4.79866">
        <ele>277</ele>
        <time>2022-08-22T19:24:02Z</time>
      </trkpt>
      <trkpt lat="46.38848" lon="4.79849">
        <ele>280</ele>
        <time>2022-08-22T19:24:20Z</time>
      </trkpt>
      <trkpt lat="46.38763" lon="4.79827">
        <ele>286</ele>
        <time>2022-08-22T19:24:40Z</time>
      </trkpt>
      <trkpt lat="46.38675" lon="4.79849">
        <ele>292</ele>
        <time>2022-08-22T19:25:01Z</time>
      </trkpt>
      <trkpt lat="46.3868" lon="4.79802">
        <ele>291</ele>
        <time>2022-08-22T19:25:08Z</time>
      </trkpt>
      <trkpt lat="46.38699" lon="4.79765">
        <ele>288</ele>
        <time>2022-08-22T19:25:16Z</time>
      </trkpt>
      <trkpt lat="46.38707" lon="4.79725">
        <ele>280</ele>
        <time>2022-08-22T19:25:22Z</time>
      </trkpt>
      <trkpt lat="46.38787" lon="4.79737">
        <ele>274</ele>
        <time>2022-08-22T19:25:41Z</time>
      </trkpt>
      <trkpt lat="46.38823" lon="4.79765">
        <ele>273</ele>
        <time>2022-08-22T19:25:51Z</time>
      </trkpt>
      <trkpt lat="46.38864" lon="4.79766">
        <ele>270</ele>
        <time>2022-08-22T19:26:00Z</time>
      </trkpt>
      <trkpt lat="46.38908" lon="4.79827">
        <ele>276</ele>
        <time>2022-08-22T19:26:15Z</time>
      </trkpt>
      <trkpt lat="46.38996" lon="4.79843">
        <ele>270</ele>
        <time>2022-08-22T19:26:35Z</time>
      </trkpt>
      <trkpt lat="46.39124" lon="4.79889">
        <ele>267</ele>
        <time>2022-08-22T19:27:06Z</time>
      </trkpt>
      <trkpt lat="46.39089" lon="4.79854">
        <ele>264</ele>
        <time>2022-08-22T19:27:16Z</time>
      </trkpt>
      <trkpt lat="46.39008" lon="4.79831">
        <ele>268</ele>
        <time>2022-08-22T19:27:35Z</time>
      </trkpt>
      <trkpt lat="46.38979" lon="4.7981">
        <ele>267</ele>
        <time>2022-08-22T19:27:43Z</time>
      </trkpt>
      <trkpt lat="46.3895" lon="4.79774">
        <ele>264</ele>
        <time>2022-08-22T19:27:52Z</time>
      </trkpt>
      <trkpt lat="46.38889" lon="4.79712">
        <ele>258</ele>
        <time>2022-08-22T19:28:09Z</time>
      </trkpt>
      <trkpt lat="46.3873" lon="4.79642">
        <ele>259</ele>
        <time>2022-08-22T19:28:48Z</time>
      </trkpt>
      <trkpt lat="46.38486" lon="4.79561">
        <ele>252</ele>
        <time>2022-08-22T19:29:46Z</time>
      </trkpt>
      <trkpt lat="46.38471" lon="4.79526">
        <ele>245</ele>
        <time>2022-08-22T19:29:53Z</time>
      </trkpt>
      <trkpt lat="46.38459" lon="4.79471">
        <ele>235</ele>
        <time>2022-08-22T19:30:02Z</time>
      </trkpt>
      <trkpt lat="46.38332" lon="4.79485">
        <ele>241</ele>
        <time>2022-08-22T19:30:32Z</time>
      </trkpt>
      <trkpt lat="46.38278" lon="4.79501">
        <ele>238</ele>
        <time>2022-08-22T19:30:45Z</time>
      </trkpt>
      <trkpt lat="46.38184" lon="4.79542">
        <ele>241</ele>
        <time>2022-08-22T19:31:08Z</time>
      </trkpt>
      <trkpt lat="46.38151" lon="4.79566">
        <ele>242</ele>
        <time>2022-08-22T19:31:17Z</time>
      </trkpt>
      <trkpt lat="46.38092" lon="4.79624">
        <ele>239</ele>
        <time>2022-08-22T19:31:33Z</time>
      </trkpt>
      <trkpt lat="46.38084" lon="4.79666">
        <ele>242</ele>
        <time>2022-08-22T19:31:40Z</time>
      </trkpt>
      <trkpt lat="46.38084" lon="4.79688">
        <ele>242</ele>
        <time>2022-08-22T19:31:44Z</time>
      </trkpt>
      <trkpt lat="46.38093" lon="4.79777">
        <ele>244</ele>
        <time>2022-08-22T19:31:58Z</time>
      </trkpt>
      <trkpt lat="46.38093" lon="4.79802">
        <ele>245</ele>
        <time>2022-08-22T19:32:02Z</time>
      </trkpt>
      <trkpt lat="46.38086" lon="4.7992">
        <ele>242</ele>
        <time>2022-08-22T19:32:21Z</time>
      </trkpt>
      <trkpt lat="46.38082" lon="4.79937">
        <ele>242</ele>
        <time>2022-08-22T19:32:24Z</time>
      </trkpt>
      <trkpt lat="46.38077" lon="4.79947">
        <ele>242</ele>
        <time>2022-08-22T19:32:26Z</time>
      </trkpt>
      <trkpt lat="46.38065" lon="4.79946">
        <ele>243</ele>
        <time>2022-08-22T19:32:29Z</time>
      </trkpt>
      <trkpt lat="46.3803" lon="4.79929">
        <ele>243</ele>
        <time>2022-08-22T19:32:38Z</time>
      </trkpt>
      <trkpt lat="46.38015" lon="4.79942">
        <ele>243</ele>
        <time>2022-08-22T19:32:42Z</time>
      </trkpt>
      <trkpt lat="46.37999" lon="4.79961">
        <ele>244</ele>
        <time>2022-08-22T19:32:47Z</time>
      </trkpt>
      <trkpt lat="46.37992" lon="4.79976">
        <ele>244</ele>
        <time>2022-08-22T19:32:49Z</time>
      </trkpt>
      <trkpt lat="46.37988" lon="4.79988">
        <ele>244</ele>
        <time>2022-08-22T19:32:52Z</time>
      </trkpt>
      <trkpt lat="46.37985" lon="4.80005">
        <ele>244</ele>
        <time>2022-08-22T19:32:54Z</time>
      </trkpt>
      <trkpt lat="46.37984" lon="4.80028">
        <ele>244</ele>
        <time>2022-08-22T19:32:58Z</time>
      </trkpt>
      <trkpt lat="46.3796" lon="4.80016">
        <ele>246</ele>
        <time>2022-08-22T19:33:04Z</time>
      </trkpt>
      <trkpt lat="46.37917" lon="4.79992">
        <ele>250</ele>
        <time>2022-08-22T19:33:15Z</time>
      </trkpt>
      <trkpt lat="46.37906" lon="4.79978">
        <ele>251</ele>
        <time>2022-08-22T19:33:18Z</time>
      </trkpt>
      <trkpt lat="46.37899" lon="4.79957">
        <ele>253</ele>
        <time>2022-08-22T19:33:22Z</time>
      </trkpt>
      <trkpt lat="46.37899" lon="4.79947">
        <ele>253</ele>
        <time>2022-08-22T19:33:24Z</time>
      </trkpt>
      <trkpt lat="46.379" lon="4.79929">
        <ele>254</ele>
        <time>2022-08-22T19:33:27Z</time>
      </trkpt>
      <trkpt lat="46.37898" lon="4.79913">
        <ele>255</ele>
        <time>2022-08-22T19:33:29Z</time>
      </trkpt>
      <trkpt lat="46.37893" lon="4.79908">
        <ele>255</ele>
        <time>2022-08-22T19:33:31Z</time>
      </trkpt>
      <trkpt lat="46.37875" lon="4.79909">
        <ele>256</ele>
        <time>2022-08-22T19:33:35Z</time>
      </trkpt>
      <trkpt lat="46.37796" lon="4.79935">
        <ele>258</ele>
        <time>2022-08-22T19:33:54Z</time>
      </trkpt>
      <trkpt lat="46.37765" lon="4.79957">
        <ele>258</ele>
        <time>2022-08-22T19:34:02Z</time>
      </trkpt>
      <trkpt lat="46.37765" lon="4.79919">
        <ele>259</ele>
        <time>2022-08-22T19:34:08Z</time>
      </trkpt>
      <trkpt lat="46.37775" lon="4.7978">
        <ele>269</ele>
        <time>2022-08-22T19:34:30Z</time>
      </trkpt>
      <trkpt lat="46.37775" lon="4.79769">
        <ele>270</ele>
        <time>2022-08-22T19:34:32Z</time>
      </trkpt>
      <trkpt lat="46.37768" lon="4.7976">
        <ele>271</ele>
        <time>2022-08-22T19:34:34Z</time>
      </trkpt>
      <trkpt lat="46.37737" lon="4.79755">
        <ele>272</ele>
        <time>2022-08-22T19:34:42Z</time>
      </trkpt>
      <trkpt lat="46.37699" lon="4.79737">
        <ele>277</ele>
        <time>2022-08-22T19:34:51Z</time>
      </trkpt>
      <trkpt lat="46.37649" lon="4.79716">
        <ele>281</ele>
        <time>2022-08-22T19:35:03Z</time>
      </trkpt>
      <trkpt lat="46.37647" lon="4.79711">
        <ele>281</ele>
        <time>2022-08-22T19:35:04Z</time>
      </trkpt>
      <trkpt lat="46.37633" lon="4.79691">
        <ele>282</ele>
        <time>2022-08-22T19:35:09Z</time>
      </trkpt>
      <trkpt lat="46.37611" lon="4.79677">
        <ele>282</ele>
        <time>2022-08-22T19:35:14Z</time>
      </trkpt>
      <trkpt lat="46.37589" lon="4.7967">
        <ele>281</ele>
        <time>2022-08-22T19:35:20Z</time>
      </trkpt>
      <trkpt lat="46.37559" lon="4.79663">
        <ele>282</ele>
        <time>2022-08-22T19:35:27Z</time>
      </trkpt>
      <trkpt lat="46.37532" lon="4.7966">
        <ele>282</ele>
        <time>2022-08-22T19:35:33Z</time>
      </trkpt>
      <trkpt lat="46.37466" lon="4.79657">
        <ele>284</ele>
        <time>2022-08-22T19:35:48Z</time>
      </trkpt>
      <trkpt lat="46.37481" lon="4.79589">
        <ele>291</ele>
        <time>2022-08-22T19:36:00Z</time>
      </trkpt>
      <trkpt lat="46.37489" lon="4.79573">
        <ele>293</ele>
        <time>2022-08-22T19:36:03Z</time>
      </trkpt>
      <trkpt lat="46.37504" lon="4.79561">
        <ele>295</ele>
        <time>2022-08-22T19:36:07Z</time>
      </trkpt>
      <trkpt lat="46.37522" lon="4.79542">
        <ele>297</ele>
        <time>2022-08-22T19:36:12Z</time>
      </trkpt>
      <trkpt lat="46.37543" lon="4.79512">
        <ele>300</ele>
        <time>2022-08-22T19:36:19Z</time>
      </trkpt>
      <trkpt lat="46.37571" lon="4.79459">
        <ele>304</ele>
        <time>2022-08-22T19:36:30Z</time>
      </trkpt>
      <trkpt lat="46.37577" lon="4.79441">
        <ele>306</ele>
        <time>2022-08-22T19:36:33Z</time>
      </trkpt>
      <trkpt lat="46.37576" lon="4.79409">
        <ele>308</ele>
        <time>2022-08-22T19:36:38Z</time>
      </trkpt>
      <trkpt lat="46.37572" lon="4.794">
        <ele>308</ele>
        <time>2022-08-22T19:36:40Z</time>
      </trkpt>
      <trkpt lat="46.37581" lon="4.79365">
        <ele>308</ele>
        <time>2022-08-22T19:36:46Z</time>
      </trkpt>
      <trkpt lat="46.37656" lon="4.7932">
        <ele>300</ele>
        <time>2022-08-22T19:37:05Z</time>
      </trkpt>
      <trkpt lat="46.37658" lon="4.79292">
        <ele>297</ele>
        <time>2022-08-22T19:37:10Z</time>
      </trkpt>
      <trkpt lat="46.37712" lon="4.7924">
        <ele>281</ele>
        <time>2022-08-22T19:37:25Z</time>
      </trkpt>
      <trkpt lat="46.37652" lon="4.7917">
        <ele>277</ele>
        <time>2022-08-22T19:37:43Z</time>
      </trkpt>
      <trkpt lat="46.37579" lon="4.79137">
        <ele>280</ele>
        <time>2022-08-22T19:38:01Z</time>
      </trkpt>
      <trkpt lat="46.37432" lon="4.79087">
        <ele>280</ele>
        <time>2022-08-22T19:38:36Z</time>
      </trkpt>
      <trkpt lat="46.37398" lon="4.79059">
        <ele>278</ele>
        <time>2022-08-22T19:38:45Z</time>
      </trkpt>
      <trkpt lat="46.37395" lon="4.78857">
        <ele>254</ele>
        <time>2022-08-22T19:39:17Z</time>
      </trkpt>
      <trkpt lat="46.37359" lon="4.78838">
        <ele>253</ele>
        <time>2022-08-22T19:39:26Z</time>
      </trkpt>
      <trkpt lat="46.3735" lon="4.7883">
        <ele>253</ele>
        <time>2022-08-22T19:39:29Z</time>
      </trkpt>
      <trkpt lat="46.3735" lon="4.78825">
        <ele>253</ele>
        <time>2022-08-22T19:39:30Z</time>
      </trkpt>
      <trkpt lat="46.37314" lon="4.78829">
        <ele>254</ele>
        <time>2022-08-22T19:39:38Z</time>
      </trkpt>
      <trkpt lat="46.37285" lon="4.78849">
        <ele>255</ele>
        <time>2022-08-22T19:39:46Z</time>
      </trkpt>
      <trkpt lat="46.37281" lon="4.78776">
        <ele>259</ele>
        <time>2022-08-22T19:39:57Z</time>
      </trkpt>
      <trkpt lat="46.37285" lon="4.78706">
        <ele>264</ele>
        <time>2022-08-22T19:40:09Z</time>
      </trkpt>
      <trkpt lat="46.3727" lon="4.78626">
        <ele>269</ele>
        <time>2022-08-22T19:40:22Z</time>
      </trkpt>
      <trkpt lat="46.37251" lon="4.78571">
        <ele>269</ele>
        <time>2022-08-22T19:40:32Z</time>
      </trkpt>
      <trkpt lat="46.37298" lon="4.78397">
        <ele>279</ele>
        <time>2022-08-22T19:41:02Z</time>
      </trkpt>
      <trkpt lat="46.37264" lon="4.78225">
        <ele>290</ele>
        <time>2022-08-22T19:41:31Z</time>
      </trkpt>
      <trkpt lat="46.37226" lon="4.7817">
        <ele>297</ele>
        <time>2022-08-22T19:41:43Z</time>
      </trkpt>
      <trkpt lat="46.37163" lon="4.78247">
        <ele>300</ele>
        <time>2022-08-22T19:42:03Z</time>
      </trkpt>
      <trkpt lat="46.37036" lon="4.78326">
        <ele>301</ele>
        <time>2022-08-22T19:42:35Z</time>
      </trkpt>
      <trkpt lat="46.36963" lon="4.78346">
        <ele>301</ele>
        <time>2022-08-22T19:42:52Z</time>
      </trkpt>
      <trkpt lat="46.36915" lon="4.78379">
        <ele>298</ele>
        <time>2022-08-22T19:43:05Z</time>
      </trkpt>
      <trkpt lat="46.36822" lon="4.78389">
        <ele>295</ele>
        <time>2022-08-22T19:43:27Z</time>
      </trkpt>
      <trkpt lat="46.36821" lon="4.78462">
        <ele>288</ele>
        <time>2022-08-22T19:43:38Z</time>
      </trkpt>
      <trkpt lat="46.36782" lon="4.78594">
        <ele>277</ele>
        <time>2022-08-22T19:44:01Z</time>
      </trkpt>
      <trkpt lat="46.36806" lon="4.78667">
        <ele>273</ele>
        <time>2022-08-22T19:44:14Z</time>
      </trkpt>
      <trkpt lat="46.36837" lon="4.78798">
        <ele>268</ele>
        <time>2022-08-22T19:44:37Z</time>
      </trkpt>
      <trkpt lat="46.36792" lon="4.78907">
        <ele>271</ele>
        <time>2022-08-22T19:44:57Z</time>
      </trkpt>
      <trkpt lat="46.36776" lon="4.78967">
        <ele>274</ele>
        <time>2022-08-22T19:45:08Z</time>
      </trkpt>
      <trkpt lat="46.36751" lon="4.7901">
        <ele>276</ele>
        <time>2022-08-22T19:45:17Z</time>
      </trkpt>
      <trkpt lat="46.3676" lon="4.78989">
        <ele>276</ele>
        <time>2022-08-22T19:45:21Z</time>
      </trkpt>
      <trkpt lat="46.36749" lon="4.78976">
        <ele>276</ele>
        <time>2022-08-22T19:45:24Z</time>
      </trkpt>
      <trkpt lat="46.36746" lon="4.7897">
        <ele>277</ele>
        <time>2022-08-22T19:45:25Z</time>
      </trkpt>
      <trkpt lat="46.36735" lon="4.78963">
        <ele>279</ele>
        <time>2022-08-22T19:45:28Z</time>
      </trkpt>
      <trkpt lat="46.36727" lon="4.78949">
        <ele>280</ele>
        <time>2022-08-22T19:45:31Z</time>
      </trkpt>
      <trkpt lat="46.36703" lon="4.78919">
        <ele>285</ele>
        <time>2022-08-22T19:45:38Z</time>
      </trkpt>
      <trkpt lat="46.36645" lon="4.78877">
        <ele>293</ele>
        <time>2022-08-22T19:45:53Z</time>
      </trkpt>
      <trkpt lat="46.36617" lon="4.78864">
        <ele>298</ele>
        <time>2022-08-22T19:46:00Z</time>
      </trkpt>
      <trkpt lat="46.36567" lon="4.78828">
        <ele>306</ele>
        <time>2022-08-22T19:46:13Z</time>
      </trkpt>
      <trkpt lat="46.36558" lon="4.78825">
        <ele>307</ele>
        <time>2022-08-22T19:46:16Z</time>
      </trkpt>
      <trkpt lat="46.36533" lon="4.78822">
        <ele>309</ele>
        <time>2022-08-22T19:46:21Z</time>
      </trkpt>
      <trkpt lat="46.36511" lon="4.78815">
        <ele>311</ele>
        <time>2022-08-22T19:46:27Z</time>
      </trkpt>
      <trkpt lat="46.36386" lon="4.78756">
        <ele>314</ele>
        <time>2022-08-22T19:46:57Z</time>
      </trkpt>
      <trkpt lat="46.36268" lon="4.78715">
        <ele>320</ele>
        <time>2022-08-22T19:47:26Z</time>
      </trkpt>
      <trkpt lat="46.36259" lon="4.78708">
        <ele>319</ele>
        <time>2022-08-22T19:47:28Z</time>
      </trkpt>
      <trkpt lat="46.36249" lon="4.78701">
        <ele>319</ele>
        <time>2022-08-22T19:47:31Z</time>
      </trkpt>
      <trkpt lat="46.36217" lon="4.78684">
        <ele>317</ele>
        <time>2022-08-22T19:47:39Z</time>
      </trkpt>
      <trkpt lat="46.36206" lon="4.78673">
        <ele>315</ele>
        <time>2022-08-22T19:47:42Z</time>
      </trkpt>
      <trkpt lat="46.36198" lon="4.78661">
        <ele>313</ele>
        <time>2022-08-22T19:47:44Z</time>
      </trkpt>
      <trkpt lat="46.36148" lon="4.78651">
        <ele>315</ele>
        <time>2022-08-22T19:47:56Z</time>
      </trkpt>
      <trkpt lat="46.36044" lon="4.787">
        <ele>324</ele>
        <time>2022-08-22T19:48:22Z</time>
      </trkpt>
      <trkpt lat="46.36038" lon="4.78707">
        <ele>325</ele>
        <time>2022-08-22T19:48:24Z</time>
      </trkpt>
      <trkpt lat="46.36037" lon="4.78723">
        <ele>328</ele>
        <time>2022-08-22T19:48:26Z</time>
      </trkpt>
      <trkpt lat="46.36033" lon="4.78733">
        <ele>330</ele>
        <time>2022-08-22T19:48:28Z</time>
      </trkpt>
      <trkpt lat="46.35977" lon="4.78806">
        <ele>335</ele>
        <time>2022-08-22T19:48:46Z</time>
      </trkpt>
      <trkpt lat="46.35943" lon="4.78856">
        <ele>338</ele>
        <time>2022-08-22T19:48:57Z</time>
      </trkpt>
      <trkpt lat="46.35899" lon="4.78916">
        <ele>340</ele>
        <time>2022-08-22T19:49:11Z</time>
      </trkpt>
      <trkpt lat="46.35873" lon="4.78896">
        <ele>341</ele>
        <time>2022-08-22T19:49:18Z</time>
      </trkpt>
      <trkpt lat="46.35849" lon="4.78883">
        <ele>342</ele>
        <time>2022-08-22T19:49:24Z</time>
      </trkpt>
      <trkpt lat="46.35783" lon="4.78868">
        <ele>345</ele>
        <time>2022-08-22T19:49:39Z</time>
      </trkpt>
      <trkpt lat="46.35698" lon="4.78839">
        <ele>347</ele>
        <time>2022-08-22T19:50:00Z</time>
      </trkpt>
      <trkpt lat="46.3568" lon="4.78836">
        <ele>347</ele>
        <time>2022-08-22T19:50:04Z</time>
      </trkpt>
      <trkpt lat="46.35663" lon="4.7883">
        <ele>347</ele>
        <time>2022-08-22T19:50:08Z</time>
      </trkpt>
      <trkpt lat="46.35573" lon="4.78779">
        <ele>345</ele>
        <time>2022-08-22T19:50:31Z</time>
      </trkpt>
      <trkpt lat="46.35516" lon="4.7875">
        <ele>346</ele>
        <time>2022-08-22T19:50:45Z</time>
      </trkpt>
      <trkpt lat="46.35502" lon="4.78742">
        <ele>346</ele>
        <time>2022-08-22T19:50:48Z</time>
      </trkpt>
      <trkpt lat="46.35456" lon="4.78722">
        <ele>349</ele>
        <time>2022-08-22T19:51:00Z</time>
      </trkpt>
      <trkpt lat="46.35443" lon="4.78721">
        <ele>350</ele>
        <time>2022-08-22T19:51:03Z</time>
      </trkpt>
      <trkpt lat="46.35399" lon="4.78708">
        <ele>354</ele>
        <time>2022-08-22T19:51:13Z</time>
      </trkpt>
      <trkpt lat="46.35402" lon="4.78693">
        <ele>355</ele>
        <time>2022-08-22T19:51:16Z</time>
      </trkpt>
      <trkpt lat="46.35436" lon="4.78589">
        <ele>359</ele>
        <time>2022-08-22T19:51:34Z</time>
      </trkpt>
      <trkpt lat="46.35444" lon="4.78554">
        <ele>359</ele>
        <time>2022-08-22T19:51:40Z</time>
      </trkpt>
      <trkpt lat="46.35448" lon="4.78526">
        <ele>360</ele>
        <time>2022-08-22T19:51:45Z</time>
      </trkpt>
      <trkpt lat="46.35441" lon="4.78507">
        <ele>362</ele>
        <time>2022-08-22T19:51:48Z</time>
      </trkpt>
      <trkpt lat="46.35429" lon="4.78485">
        <ele>363</ele>
        <time>2022-08-22T19:51:53Z</time>
      </trkpt>
      <trkpt lat="46.35411" lon="4.78462">
        <ele>365</ele>
        <time>2022-08-22T19:51:58Z</time>
      </trkpt>
      <trkpt lat="46.35373" lon="4.78451">
        <ele>369</ele>
        <time>2022-08-22T19:52:07Z</time>
      </trkpt>
      <trkpt lat="46.35356" lon="4.78445">
        <ele>370</ele>
        <time>2022-08-22T19:52:11Z</time>
      </trkpt>
      <trkpt lat="46.35247" lon="4.78388">
        <ele>377</ele>
        <time>2022-08-22T19:52:39Z</time>
      </trkpt>
      <trkpt lat="46.35173" lon="4.78353">
        <ele>385</ele>
        <time>2022-08-22T19:52:57Z</time>
      </trkpt>
      <trkpt lat="46.35165" lon="4.78347">
        <ele>386</ele>
        <time>2022-08-22T19:52:59Z</time>
      </trkpt>
      <trkpt lat="46.35116" lon="4.78331">
        <ele>388</ele>
        <time>2022-08-22T19:53:11Z</time>
      </trkpt>
      <trkpt lat="46.35066" lon="4.78311">
        <ele>387</ele>
        <time>2022-08-22T19:53:23Z</time>
      </trkpt>
      <trkpt lat="46.35027" lon="4.78292">
        <ele>387</ele>
        <time>2022-08-22T19:53:32Z</time>
      </trkpt>
      <trkpt lat="46.34991" lon="4.78282">
        <ele>387</ele>
        <time>2022-08-22T19:53:41Z</time>
      </trkpt>
      <trkpt lat="46.34955" lon="4.78266">
        <ele>385</ele>
        <time>2022-08-22T19:53:50Z</time>
      </trkpt>
      <trkpt lat="46.34928" lon="4.78264">
        <ele>385</ele>
        <time>2022-08-22T19:53:56Z</time>
      </trkpt>
      <trkpt lat="46.34932" lon="4.78253">
        <ele>384</ele>
        <time>2022-08-22T19:53:58Z</time>
      </trkpt>
      <trkpt lat="46.34942" lon="4.78242">
        <ele>383</ele>
        <time>2022-08-22T19:54:01Z</time>
      </trkpt>
      <trkpt lat="46.34961" lon="4.78233">
        <ele>382</ele>
        <time>2022-08-22T19:54:06Z</time>
      </trkpt>
      <trkpt lat="46.34968" lon="4.78227">
        <ele>382</ele>
        <time>2022-08-22T19:54:07Z</time>
      </trkpt>
      <trkpt lat="46.34998" lon="4.78203">
        <ele>378</ele>
        <time>2022-08-22T19:54:15Z</time>
      </trkpt>
      <trkpt lat="46.35014" lon="4.78184">
        <ele>375</ele>
        <time>2022-08-22T19:54:20Z</time>
      </trkpt>
      <trkpt lat="46.35053" lon="4.78173">
        <ele>373</ele>
        <time>2022-08-22T19:54:30Z</time>
      </trkpt>
      <trkpt lat="46.35077" lon="4.78159">
        <ele>370</ele>
        <time>2022-08-22T19:54:36Z</time>
      </trkpt>
      <trkpt lat="46.35091" lon="4.78147">
        <ele>368</ele>
        <time>2022-08-22T19:54:39Z</time>
      </trkpt>
      <trkpt lat="46.35155" lon="4.78118">
        <ele>358</ele>
        <time>2022-08-22T19:54:55Z</time>
      </trkpt>
      <trkpt lat="46.35196" lon="4.78089">
        <ele>352</ele>
        <time>2022-08-22T19:55:06Z</time>
      </trkpt>
      <trkpt lat="46.35235" lon="4.78067">
        <ele>347</ele>
        <time>2022-08-22T19:55:15Z</time>
      </trkpt>
      <trkpt lat="46.35249" lon="4.78057">
        <ele>345</ele>
        <time>2022-08-22T19:55:19Z</time>
      </trkpt>
      <trkpt lat="46.35295" lon="4.78016">
        <ele>338</ele>
        <time>2022-08-22T19:55:32Z</time>
      </trkpt>
      <trkpt lat="46.35302" lon="4.77989">
        <ele>338</ele>
        <time>2022-08-22T19:55:36Z</time>
      </trkpt>
      <trkpt lat="46.35338" lon="4.77958">
        <ele>339</ele>
        <time>2022-08-22T19:55:46Z</time>
      </trkpt>
      <trkpt lat="46.35355" lon="4.77936">
        <ele>340</ele>
        <time>2022-08-22T19:55:51Z</time>
      </trkpt>
      <trkpt lat="46.35367" lon="4.7793">
        <ele>341</ele>
        <time>2022-08-22T19:55:54Z</time>
      </trkpt>
      <trkpt lat="46.35409" lon="4.77918">
        <ele>342</ele>
        <time>2022-08-22T19:56:04Z</time>
      </trkpt>
      <trkpt lat="46.35416" lon="4.77914">
        <ele>342</ele>
        <time>2022-08-22T19:56:06Z</time>
      </trkpt>
      <trkpt lat="46.35424" lon="4.77896">
        <ele>343</ele>
        <time>2022-08-22T19:56:10Z</time>
      </trkpt>
      <trkpt lat="46.35442" lon="4.77858">
        <ele>346</ele>
        <time>2022-08-22T19:56:17Z</time>
      </trkpt>
      <trkpt lat="46.35475" lon="4.77779">
        <ele>352</ele>
        <time>2022-08-22T19:56:32Z</time>
      </trkpt>
      <trkpt lat="46.35534" lon="4.77787">
        <ele>355</ele>
        <time>2022-08-22T19:56:46Z</time>
      </trkpt>
      <trkpt lat="46.35572" lon="4.77749">
        <ele>359</ele>
        <time>2022-08-22T19:56:57Z</time>
      </trkpt>
      <trkpt lat="46.35586" lon="4.77666">
        <ele>363</ele>
        <time>2022-08-22T19:57:10Z</time>
      </trkpt>
      <trkpt lat="46.35651" lon="4.77611">
        <ele>369</ele>
        <time>2022-08-22T19:57:28Z</time>
      </trkpt>
      <trkpt lat="46.35792" lon="4.77647">
        <ele>364</ele>
        <time>2022-08-22T19:58:01Z</time>
      </trkpt>
      <trkpt lat="46.35887" lon="4.77707">
        <ele>353</ele>
        <time>2022-08-22T19:58:26Z</time>
      </trkpt>
      <trkpt lat="46.35958" lon="4.77765">
        <ele>344</ele>
        <time>2022-08-22T19:58:45Z</time>
      </trkpt>
      <trkpt lat="46.361" lon="4.77754">
        <ele>354</ele>
        <time>2022-08-22T19:59:18Z</time>
      </trkpt>
      <trkpt lat="46.36181" lon="4.77687">
        <ele>356</ele>
        <time>2022-08-22T19:59:40Z</time>
      </trkpt>
      <trkpt lat="46.3621" lon="4.77701">
        <ele>355</ele>
        <time>2022-08-22T19:59:47Z</time>
      </trkpt>
      <trkpt lat="46.36273" lon="4.77682">
        <ele>355</ele>
        <time>2022-08-22T20:00:02Z</time>
      </trkpt>
      <trkpt lat="46.3635" lon="4.77632">
        <ele>354</ele>
        <time>2022-08-22T20:00:21Z</time>
      </trkpt>
      <trkpt lat="46.36383" lon="4.77596">
        <ele>353</ele>
        <time>2022-08-22T20:00:31Z</time>
      </trkpt>
      <trkpt lat="46.36426" lon="4.77579">
        <ele>354</ele>
        <time>2022-08-22T20:00:42Z</time>
      </trkpt>
      <trkpt lat="46.36468" lon="4.7758">
        <ele>355</ele>
        <time>2022-08-22T20:00:51Z</time>
      </trkpt>
      <trkpt lat="46.3648" lon="4.77593">
        <ele>355</ele>
        <time>2022-08-22T20:00:55Z</time>
      </trkpt>
      <trkpt lat="46.36504" lon="4.77621">
        <ele>355</ele>
        <time>2022-08-22T20:01:02Z</time>
      </trkpt>
      <trkpt lat="46.3655" lon="4.77677">
        <ele>355</ele>
        <time>2022-08-22T20:01:16Z</time>
      </trkpt>
      <trkpt lat="46.36595" lon="4.7771">
        <ele>354</ele>
        <time>2022-08-22T20:01:28Z</time>
      </trkpt>
      <trkpt lat="46.36648" lon="4.77724">
        <ele>356</ele>
        <time>2022-08-22T20:01:40Z</time>
      </trkpt>
      <trkpt lat="46.36712" lon="4.77721">
        <ele>358</ele>
        <time>2022-08-22T20:01:55Z</time>
      </trkpt>
      <trkpt lat="46.36901" lon="4.77736">
        <ele>356</ele>
        <time>2022-08-22T20:02:40Z</time>
      </trkpt>
      <trkpt lat="46.36928" lon="4.77755">
        <ele>355</ele>
        <time>2022-08-22T20:02:47Z</time>
      </trkpt>
      <trkpt lat="46.36952" lon="4.77776">
        <ele>354</ele>
        <time>2022-08-22T20:02:53Z</time>
      </trkpt>
      <trkpt lat="46.3701" lon="4.77776">
        <ele>352</ele>
        <time>2022-08-22T20:03:07Z</time>
      </trkpt>
      <trkpt lat="46.37021" lon="4.77814">
        <ele>350</ele>
        <time>2022-08-22T20:03:13Z</time>
      </trkpt>
      <trkpt lat="46.37037" lon="4.7784">
        <ele>347</ele>
        <time>2022-08-22T20:03:19Z</time>
      </trkpt>
      <trkpt lat="46.37059" lon="4.77845">
        <ele>343</ele>
        <time>2022-08-22T20:03:24Z</time>
      </trkpt>
      <trkpt lat="46.37064" lon="4.77871">
        <ele>342</ele>
        <time>2022-08-22T20:03:28Z</time>
      </trkpt>
      <trkpt lat="46.37083" lon="4.77895">
        <ele>339</ele>
        <time>2022-08-22T20:03:34Z</time>
      </trkpt>
      <trkpt lat="46.37098" lon="4.77919">
        <ele>336</ele>
        <time>2022-08-22T20:03:40Z</time>
      </trkpt>
      <trkpt lat="46.37098" lon="4.77935">
        <ele>335</ele>
        <time>2022-08-22T20:03:42Z</time>
      </trkpt>
      <trkpt lat="46.37099" lon="4.77956">
        <ele>333</ele>
        <time>2022-08-22T20:03:46Z</time>
      </trkpt>
      <trkpt lat="46.37116" lon="4.77974">
        <ele>330</ele>
        <time>2022-08-22T20:03:50Z</time>
      </trkpt>
      <trkpt lat="46.37152" lon="4.77963">
        <ele>325</ele>
        <time>2022-08-22T20:03:59Z</time>
      </trkpt>
      <trkpt lat="46.37196" lon="4.77973">
        <ele>320</ele>
        <time>2022-08-22T20:04:09Z</time>
      </trkpt>
      <trkpt lat="46.37225" lon="4.77982">
        <ele>316</ele>
        <time>2022-08-22T20:04:16Z</time>
      </trkpt>
      <trkpt lat="46.37245" lon="4.77979">
        <ele>315</ele>
        <time>2022-08-22T20:04:21Z</time>
      </trkpt>
      <trkpt lat="46.37312" lon="4.77946">
        <ele>309</ele>
        <time>2022-08-22T20:04:38Z</time>
      </trkpt>
      <trkpt lat="46.37339" lon="4.77959">
        <ele>306</ele>
        <time>2022-08-22T20:04:44Z</time>
      </trkpt>
      <trkpt lat="46.37357" lon="4.77953">
        <ele>306</ele>
        <time>2022-08-22T20:04:49Z</time>
      </trkpt>
      <trkpt lat="46.37399" lon="4.77927">
        <ele>306</ele>
        <time>2022-08-22T20:04:59Z</time>
      </trkpt>
      <trkpt lat="46.3742" lon="4.77933">
        <ele>305</ele>
        <time>2022-08-22T20:05:04Z</time>
      </trkpt>
      <trkpt lat="46.37481" lon="4.77926">
        <ele>301</ele>
        <time>2022-08-22T20:05:19Z</time>
      </trkpt>
      <trkpt lat="46.37492" lon="4.77979">
        <ele>300</ele>
        <time>2022-08-22T20:05:27Z</time>
      </trkpt>
      <trkpt lat="46.375" lon="4.78036">
        <ele>299</ele>
        <time>2022-08-22T20:05:37Z</time>
      </trkpt>
      <trkpt lat="46.37491" lon="4.78113">
        <ele>299</ele>
        <time>2022-08-22T20:05:49Z</time>
      </trkpt>
      <trkpt lat="46.37494" lon="4.78134">
        <ele>299</ele>
        <time>2022-08-22T20:05:53Z</time>
      </trkpt>
      <trkpt lat="46.37501" lon="4.7818">
        <ele>299</ele>
        <time>2022-08-22T20:06:00Z</time>
      </trkpt>
      <trkpt lat="46.37532" lon="4.78251">
        <ele>296</ele>
        <time>2022-08-22T20:06:14Z</time>
      </trkpt>
      <trkpt lat="46.3754" lon="4.78289">
        <ele>297</ele>
        <time>2022-08-22T20:06:20Z</time>
      </trkpt>
      <trkpt lat="46.37544" lon="4.78295">
        <ele>297</ele>
        <time>2022-08-22T20:06:22Z</time>
      </trkpt>
      <trkpt lat="46.37567" lon="4.7831">
        <ele>297</ele>
        <time>2022-08-22T20:06:28Z</time>
      </trkpt>
      <trkpt lat="46.37605" lon="4.78326">
        <ele>295</ele>
        <time>2022-08-22T20:06:37Z</time>
      </trkpt>
      <trkpt lat="46.37613" lon="4.78333">
        <ele>294</ele>
        <time>2022-08-22T20:06:39Z</time>
      </trkpt>
      <trkpt lat="46.37628" lon="4.78351">
        <ele>293</ele>
        <time>2022-08-22T20:06:44Z</time>
      </trkpt>
      <trkpt lat="46.3765" lon="4.78364">
        <ele>291</ele>
        <time>2022-08-22T20:06:49Z</time>
      </trkpt>
      <trkpt lat="46.37675" lon="4.78417">
        <ele>291</ele>
        <time>2022-08-22T20:06:59Z</time>
      </trkpt>
      <trkpt lat="46.3769" lon="4.78432">
        <ele>288</ele>
        <time>2022-08-22T20:07:04Z</time>
      </trkpt>
      <trkpt lat="46.377" lon="4.78437">
        <ele>286</ele>
        <time>2022-08-22T20:07:06Z</time>
      </trkpt>
      <trkpt lat="46.37767" lon="4.7844">
        <ele>278</ele>
        <time>2022-08-22T20:07:22Z</time>
      </trkpt>
      <trkpt lat="46.37781" lon="4.78436">
        <ele>277</ele>
        <time>2022-08-22T20:07:25Z</time>
      </trkpt>
      <trkpt lat="46.37815" lon="4.78435">
        <ele>274</ele>
        <time>2022-08-22T20:07:33Z</time>
      </trkpt>
      <trkpt lat="46.37841" lon="4.78407">
        <ele>271</ele>
        <time>2022-08-22T20:07:41Z</time>
      </trkpt>
      <trkpt lat="46.37863" lon="4.78396">
        <ele>268</ele>
        <time>2022-08-22T20:07:46Z</time>
      </trkpt>
      <trkpt lat="46.37889" lon="4.78374">
        <ele>264</ele>
        <time>2022-08-22T20:07:53Z</time>
      </trkpt>
      <trkpt lat="46.37894" lon="4.78362">
        <ele>263</ele>
        <time>2022-08-22T20:07:55Z</time>
      </trkpt>
      <trkpt lat="46.37917" lon="4.78356">
        <ele>260</ele>
        <time>2022-08-22T20:08:01Z</time>
      </trkpt>
      <trkpt lat="46.37959" lon="4.7834">
        <ele>258</ele>
        <time>2022-08-22T20:08:11Z</time>
      </trkpt>
      <trkpt lat="46.38063" lon="4.7829">
        <ele>255</ele>
        <time>2022-08-22T20:08:37Z</time>
      </trkpt>
      <trkpt lat="46.3818" lon="4.78223">
        <ele>244</ele>
        <time>2022-08-22T20:09:06Z</time>
      </trkpt>
      <trkpt lat="46.3822" lon="4.78312">
        <ele>239</ele>
        <time>2022-08-22T20:09:23Z</time>
      </trkpt>
      <trkpt lat="46.38253" lon="4.78319">
        <ele>233</ele>
        <time>2022-08-22T20:09:31Z</time>
      </trkpt>
      <trkpt lat="46.38332" lon="4.78304">
        <ele>232</ele>
        <time>2022-08-22T20:09:49Z</time>
      </trkpt>
      <trkpt lat="46.38341" lon="4.78254">
        <ele>233</ele>
        <time>2022-08-22T20:09:58Z</time>
      </trkpt>
      <trkpt lat="46.38352" lon="4.78194">
        <ele>236</ele>
        <time>2022-08-22T20:10:08Z</time>
      </trkpt>
      <trkpt lat="46.38407" lon="4.78078">
        <ele>248</ele>
        <time>2022-08-22T20:10:30Z</time>
      </trkpt>
      <trkpt lat="46.38413" lon="4.78061">
        <ele>251</ele>
        <time>2022-08-22T20:10:34Z</time>
      </trkpt>
      <trkpt lat="46.384" lon="4.78024">
        <ele>253</ele>
        <time>2022-08-22T20:10:40Z</time>
      </trkpt>
      <trkpt lat="46.38386" lon="4.78004">
        <ele>253</ele>
        <time>2022-08-22T20:10:45Z</time>
      </trkpt>
      <trkpt lat="46.38376" lon="4.77924">
        <ele>254</ele>
        <time>2022-08-22T20:10:58Z</time>
      </trkpt>
      <trkpt lat="46.38377" lon="4.77864">
        <ele>255</ele>
        <time>2022-08-22T20:11:08Z</time>
      </trkpt>
      <trkpt lat="46.38382" lon="4.77848">
        <ele>256</ele>
        <time>2022-08-22T20:11:10Z</time>
      </trkpt>
      <trkpt lat="46.38382" lon="4.77824">
        <ele>256</ele>
        <time>2022-08-22T20:11:14Z</time>
      </trkpt>
      <trkpt lat="46.38377" lon="4.77804">
        <ele>255</ele>
        <time>2022-08-22T20:11:18Z</time>
      </trkpt>
      <trkpt lat="46.38376" lon="4.77767">
        <ele>256</ele>
        <time>2022-08-22T20:11:24Z</time>
      </trkpt>
      <trkpt lat="46.38379" lon="4.77754">
        <ele>256</ele>
        <time>2022-08-22T20:11:26Z</time>
      </trkpt>
      <trkpt lat="46.38405" lon="4.7773">
        <ele>261</ele>
        <time>2022-08-22T20:11:33Z</time>
      </trkpt>
      <trkpt lat="46.38419" lon="4.77713">
        <ele>264</ele>
        <time>2022-08-22T20:11:37Z</time>
      </trkpt>
      <trkpt lat="46.38428" lon="4.77689">
        <ele>265</ele>
        <time>2022-08-22T20:11:42Z</time>
      </trkpt>
      <trkpt lat="46.38405" lon="4.77613">
        <ele>265</ele>
        <time>2022-08-22T20:11:55Z</time>
      </trkpt>
      <trkpt lat="46.38373" lon="4.77558">
        <ele>262</ele>
        <time>2022-08-22T20:12:07Z</time>
      </trkpt>
      <trkpt lat="46.38353" lon="4.77475">
        <ele>263</ele>
        <time>2022-08-22T20:12:21Z</time>
      </trkpt>
      <trkpt lat="46.3834" lon="4.77353">
        <ele>263</ele>
        <time>2022-08-22T20:12:41Z</time>
      </trkpt>
      <trkpt lat="46.38355" lon="4.77308">
        <ele>265</ele>
        <time>2022-08-22T20:12:49Z</time>
      </trkpt>
      <trkpt lat="46.3837" lon="4.77289">
        <ele>267</ele>
        <time>2022-08-22T20:12:53Z</time>
      </trkpt>
      <trkpt lat="46.3838" lon="4.77261">
        <ele>267</ele>
        <time>2022-08-22T20:12:59Z</time>
      </trkpt>
      <trkpt lat="46.38412" lon="4.77234">
        <ele>270</ele>
        <time>2022-08-22T20:13:07Z</time>
      </trkpt>
      <trkpt lat="46.38438" lon="4.77202">
        <ele>271</ele>
        <time>2022-08-22T20:13:15Z</time>
      </trkpt>
      <trkpt lat="46.38441" lon="4.77189">
        <ele>270</ele>
        <time>2022-08-22T20:13:17Z</time>
      </trkpt>
      <trkpt lat="46.38459" lon="4.7716">
        <ele>271</ele>
        <time>2022-08-22T20:13:24Z</time>
      </trkpt>
      <trkpt lat="46.38494" lon="4.77135">
        <ele>275</ele>
        <time>2022-08-22T20:13:33Z</time>
      </trkpt>
      <trkpt lat="46.3853" lon="4.77121">
        <ele>278</ele>
        <time>2022-08-22T20:13:41Z</time>
      </trkpt>
      <trkpt lat="46.38579" lon="4.77053">
        <ele>280</ele>
        <time>2022-08-22T20:13:57Z</time>
      </trkpt>
      <trkpt lat="46.38602" lon="4.77025">
        <ele>280</ele>
        <time>2022-08-22T20:14:04Z</time>
      </trkpt>
      <trkpt lat="46.38657" lon="4.76956">
        <ele>283</ele>
        <time>2022-08-22T20:14:21Z</time>
      </trkpt>
      <trkpt lat="46.38691" lon="4.76876">
        <ele>283</ele>
        <time>2022-08-22T20:14:36Z</time>
      </trkpt>
      <trkpt lat="46.38716" lon="4.76803">
        <ele>285</ele>
        <time>2022-08-22T20:14:50Z</time>
      </trkpt>
      <trkpt lat="46.38716" lon="4.76724">
        <ele>285</ele>
        <time>2022-08-22T20:15:02Z</time>
      </trkpt>
      <trkpt lat="46.38725" lon="4.76663">
        <ele>287</ele>
        <time>2022-08-22T20:15:12Z</time>
      </trkpt>
      <trkpt lat="46.38716" lon="4.7659">
        <ele>290</ele>
        <time>2022-08-22T20:15:24Z</time>
      </trkpt>
      <trkpt lat="46.38722" lon="4.76477">
        <ele>298</ele>
        <time>2022-08-22T20:15:43Z</time>
      </trkpt>
      <trkpt lat="46.38718" lon="4.76247">
        <ele>308</ele>
        <time>2022-08-22T20:16:20Z</time>
      </trkpt>
      <trkpt lat="46.38756" lon="4.76117">
        <ele>317</ele>
        <time>2022-08-22T20:16:42Z</time>
      </trkpt>
      <trkpt lat="46.38782" lon="4.76065">
        <ele>319</ele>
        <time>2022-08-22T20:16:53Z</time>
      </trkpt>
      <trkpt lat="46.38792" lon="4.76026">
        <ele>319</ele>
        <time>2022-08-22T20:16:59Z</time>
      </trkpt>
      <trkpt lat="46.3881" lon="4.75972">
        <ele>320</ele>
        <time>2022-08-22T20:17:09Z</time>
      </trkpt>
      <trkpt lat="46.38829" lon="4.75937">
        <ele>322</ele>
        <time>2022-08-22T20:17:16Z</time>
      </trkpt>
      <trkpt lat="46.38849" lon="4.75917">
        <ele>323</ele>
        <time>2022-08-22T20:17:22Z</time>
      </trkpt>
      <trkpt lat="46.38966" lon="4.75818">
        <ele>324</ele>
        <time>2022-08-22T20:17:54Z</time>
      </trkpt>
      <trkpt lat="46.39068" lon="4.75648">
        <ele>326</ele>
        <time>2022-08-22T20:18:30Z</time>
      </trkpt>
      <trkpt lat="46.39078" lon="4.7563">
        <ele>327</ele>
        <time>2022-08-22T20:18:34Z</time>
      </trkpt>
      <trkpt lat="46.39146" lon="4.75493">
        <ele>329</ele>
        <time>2022-08-22T20:19:01Z</time>
      </trkpt>
      <trkpt lat="46.39147" lon="4.75453">
        <ele>328</ele>
        <time>2022-08-22T20:19:07Z</time>
      </trkpt>
      <trkpt lat="46.3921" lon="4.75471">
        <ele>335</ele>
        <time>2022-08-22T20:19:22Z</time>
      </trkpt>
      <trkpt lat="46.39223" lon="4.75472">
        <ele>337</ele>
        <time>2022-08-22T20:19:25Z</time>
      </trkpt>
      <trkpt lat="46.39241" lon="4.75465">
        <ele>338</ele>
        <time>2022-08-22T20:19:30Z</time>
      </trkpt>
      <trkpt lat="46.39261" lon="4.75498">
        <ele>342</ele>
        <time>2022-08-22T20:19:37Z</time>
      </trkpt>
      <trkpt lat="46.39277" lon="4.75548">
        <ele>347</ele>
        <time>2022-08-22T20:19:46Z</time>
      </trkpt>
      <trkpt lat="46.39292" lon="4.75576">
        <ele>351</ele>
        <time>2022-08-22T20:19:51Z</time>
      </trkpt>
      <trkpt lat="46.39313" lon="4.75622">
        <ele>358</ele>
        <time>2022-08-22T20:20:00Z</time>
      </trkpt>
      <trkpt lat="46.39341" lon="4.75628">
        <ele>362</ele>
        <time>2022-08-22T20:20:07Z</time>
      </trkpt>
      <trkpt lat="46.39363" lon="4.75648">
        <ele>367</ele>
        <time>2022-08-22T20:20:13Z</time>
      </trkpt>
      <trkpt lat="46.39402" lon="4.75641">
        <ele>372</ele>
        <time>2022-08-22T20:20:22Z</time>
      </trkpt>
      <trkpt lat="46.39419" lon="4.75665">
        <ele>377</ele>
        <time>2022-08-22T20:20:28Z</time>
      </trkpt>
      <trkpt lat="46.39462" lon="4.75674">
        <ele>380</ele>
        <time>2022-08-22T20:20:38Z</time>
      </trkpt>
      <trkpt lat="46.39497" lon="4.75648">
        <ele>381</ele>
        <time>2022-08-22T20:20:47Z</time>
      </trkpt>
      <trkpt lat="46.39547" lon="4.75643">
        <ele>384</ele>
        <time>2022-08-22T20:20:59Z</time>
      </trkpt>
      <trkpt lat="46.39582" lon="4.75631">
        <ele>386</ele>
        <time>2022-08-22T20:21:07Z</time>
      </trkpt>
      <trkpt lat="46.396" lon="4.75628">
        <ele>387</ele>
        <time>2022-08-22T20:21:11Z</time>
      </trkpt>
      <trkpt lat="46.39634" lon="4.75622">
        <ele>389</ele>
        <time>2022-08-22T20:21:19Z</time>
      </trkpt>
      <trkpt lat="46.39649" lon="4.75625">
        <ele>390</ele>
        <time>2022-08-22T20:21:23Z</time>
      </trkpt>
      <trkpt lat="46.39686" lon="4.75608">
        <ele>391</ele>
        <time>2022-08-22T20:21:32Z</time>
      </trkpt>
      <trkpt lat="46.39683" lon="4.75572">
        <ele>390</ele>
        <time>2022-08-22T20:21:38Z</time>
      </trkpt>
      <trkpt lat="46.39687" lon="4.75555">
        <ele>390</ele>
        <time>2022-08-22T20:21:41Z</time>
      </trkpt>
      <trkpt lat="46.39697" lon="4.75555">
        <ele>390</ele>
        <time>2022-08-22T20:21:43Z</time>
      </trkpt>
      <trkpt lat="46.3971" lon="4.75576">
        <ele>392</ele>
        <time>2022-08-22T20:21:47Z</time>
      </trkpt>
      <trkpt lat="46.39719" lon="4.75599">
        <ele>393</ele>
        <time>2022-08-22T20:21:52Z</time>
      </trkpt>
      <trkpt lat="46.39741" lon="4.75627">
        <ele>394</ele>
        <time>2022-08-22T20:21:59Z</time>
      </trkpt>
      <trkpt lat="46.39775" lon="4.75668">
        <ele>395</ele>
        <time>2022-08-22T20:22:09Z</time>
      </trkpt>
      <trkpt lat="46.39775" lon="4.75691">
        <ele>395</ele>
        <time>2022-08-22T20:22:13Z</time>
      </trkpt>
      <trkpt lat="46.39791" lon="4.75693">
        <ele>396</ele>
        <time>2022-08-22T20:22:16Z</time>
      </trkpt>
      <trkpt lat="46.39835" lon="4.75707">
        <ele>397</ele>
        <time>2022-08-22T20:22:27Z</time>
      </trkpt>
      <trkpt lat="46.39879" lon="4.75741">
        <ele>395</ele>
        <time>2022-08-22T20:22:38Z</time>
      </trkpt>
      <trkpt lat="46.39962" lon="4.75814">
        <ele>388</ele>
        <time>2022-08-22T20:23:01Z</time>
      </trkpt>
      <trkpt lat="46.40087" lon="4.75924">
        <ele>375</ele>
        <time>2022-08-22T20:23:35Z</time>
      </trkpt>
      <trkpt lat="46.40081" lon="4.76038">
        <ele>372</ele>
        <time>2022-08-22T20:23:54Z</time>
      </trkpt>
      <trkpt lat="46.40116" lon="4.76053">
        <ele>367</ele>
        <time>2022-08-22T20:24:02Z</time>
      </trkpt>
      <trkpt lat="46.40121" lon="4.76085">
        <ele>366</ele>
        <time>2022-08-22T20:24:08Z</time>
      </trkpt>
      <trkpt lat="46.40113" lon="4.76182">
        <ele>362</ele>
        <time>2022-08-22T20:24:23Z</time>
      </trkpt>
      <trkpt lat="46.40171" lon="4.76261">
        <ele>352</ele>
        <time>2022-08-22T20:24:42Z</time>
      </trkpt>
      <trkpt lat="46.40175" lon="4.76312">
        <ele>349</ele>
        <time>2022-08-22T20:24:50Z</time>
      </trkpt>
      <trkpt lat="46.40184" lon="4.76336">
        <ele>346</ele>
        <time>2022-08-22T20:24:54Z</time>
      </trkpt>
      <trkpt lat="46.40188" lon="4.76329">
        <ele>345</ele>
        <time>2022-08-22T20:24:56Z</time>
      </trkpt>
      <trkpt lat="46.40296" lon="4.76479">
        <ele>324</ele>
        <time>2022-08-22T20:25:31Z</time>
      </trkpt>
      <trkpt lat="46.40375" lon="4.76695">
        <ele>313</ele>
        <time>2022-08-22T20:26:10Z</time>
      </trkpt>
      <trkpt lat="46.40421" lon="4.76906">
        <ele>306</ele>
        <time>2022-08-22T20:26:46Z</time>
      </trkpt>
      <trkpt lat="46.40417" lon="4.76951">
        <ele>307</ele>
        <time>2022-08-22T20:26:53Z</time>
      </trkpt>
      <trkpt lat="46.40443" lon="4.77019">
        <ele>300</ele>
        <time>2022-08-22T20:27:06Z</time>
      </trkpt>
      <trkpt lat="46.40441" lon="4.77237">
        <ele>286</ele>
        <time>2022-08-22T20:27:41Z</time>
      </trkpt>
      <trkpt lat="46.40664" lon="4.77234">
        <ele>251</ele>
        <time>2022-08-22T20:28:33Z</time>
      </trkpt>
      <trkpt lat="46.40672" lon="4.77087">
        <ele>253</ele>
        <time>2022-08-22T20:28:57Z</time>
      </trkpt>
      <trkpt lat="46.40651" lon="4.76838">
        <ele>258</ele>
        <time>2022-08-22T20:29:37Z</time>
      </trkpt>
      <trkpt lat="46.4061" lon="4.7665">
        <ele>266</ele>
        <time>2022-08-22T20:30:09Z</time>
      </trkpt>
      <trkpt lat="46.40611" lon="4.76641">
        <ele>266</ele>
        <time>2022-08-22T20:30:10Z</time>
      </trkpt>
      <trkpt lat="46.40567" lon="4.7648">
        <ele>270</ele>
        <time>2022-08-22T20:30:38Z</time>
      </trkpt>
      <trkpt lat="46.4056" lon="4.76397">
        <ele>268</ele>
        <time>2022-08-22T20:30:52Z</time>
      </trkpt>
      <trkpt lat="46.40548" lon="4.76348">
        <ele>268</ele>
        <time>2022-08-22T20:31:00Z</time>
      </trkpt>
      <trkpt lat="46.40463" lon="4.76022">
        <ele>262</ele>
        <time>2022-08-22T20:31:56Z</time>
      </trkpt>
      <trkpt lat="46.40459" lon="4.7598">
        <ele>259</ele>
        <time>2022-08-22T20:32:03Z</time>
      </trkpt>
      <trkpt lat="46.40472" lon="4.75913">
        <ele>250</ele>
        <time>2022-08-22T20:32:14Z</time>
      </trkpt>
      <trkpt lat="46.40478" lon="4.7589">
        <ele>247</ele>
        <time>2022-08-22T20:32:18Z</time>
      </trkpt>
      <trkpt lat="46.40469" lon="4.75838">
        <ele>248</ele>
        <time>2022-08-22T20:32:27Z</time>
      </trkpt>
      <trkpt lat="46.40453" lon="4.75784">
        <ele>250</ele>
        <time>2022-08-22T20:32:36Z</time>
      </trkpt>
      <trkpt lat="46.40431" lon="4.75729">
        <ele>251</ele>
        <time>2022-08-22T20:32:46Z</time>
      </trkpt>
      <trkpt lat="46.40411" lon="4.75652">
        <ele>249</ele>
        <time>2022-08-22T20:33:00Z</time>
      </trkpt>
      <trkpt lat="46.40401" lon="4.756">
        <ele>247</ele>
        <time>2022-08-22T20:33:08Z</time>
      </trkpt>
      <trkpt lat="46.40387" lon="4.75534">
        <ele>246</ele>
        <time>2022-08-22T20:33:20Z</time>
      </trkpt>
      <trkpt lat="46.40375" lon="4.75492">
        <ele>245</ele>
        <time>2022-08-22T20:33:27Z</time>
      </trkpt>
      <trkpt lat="46.40365" lon="4.75419">
        <ele>244</ele>
        <time>2022-08-22T20:33:39Z</time>
      </trkpt>
      <trkpt lat="46.40363" lon="4.75346">
        <ele>242</ele>
        <time>2022-08-22T20:33:51Z</time>
      </trkpt>
      <trkpt lat="46.4036" lon="4.75314">
        <ele>242</ele>
        <time>2022-08-22T20:33:56Z</time>
      </trkpt>
      <trkpt lat="46.40351" lon="4.75276">
        <ele>242</ele>
        <time>2022-08-22T20:34:02Z</time>
      </trkpt>
      <trkpt lat="46.40344" lon="4.75229">
        <ele>241</ele>
        <time>2022-08-22T20:34:10Z</time>
      </trkpt>
      <trkpt lat="46.40336" lon="4.75194">
        <ele>241</ele>
        <time>2022-08-22T20:34:16Z</time>
      </trkpt>
      <trkpt lat="46.40324" lon="4.75168">
        <ele>242</ele>
        <time>2022-08-22T20:34:21Z</time>
      </trkpt>
      <trkpt lat="46.40326" lon="4.75159">
        <ele>242</ele>
        <time>2022-08-22T20:34:22Z</time>
      </trkpt>
      <trkpt lat="46.40332" lon="4.75147">
        <ele>241</ele>
        <time>2022-08-22T20:34:25Z</time>
      </trkpt>
      <trkpt lat="46.40356" lon="4.75104">
        <ele>242</ele>
        <time>2022-08-22T20:34:34Z</time>
      </trkpt>
      <trkpt lat="46.40387" lon="4.75008">
        <ele>245</ele>
        <time>2022-08-22T20:34:51Z</time>
      </trkpt>
      <trkpt lat="46.40394" lon="4.74978">
        <ele>246</ele>
        <time>2022-08-22T20:34:56Z</time>
      </trkpt>
      <trkpt lat="46.4038" lon="4.74939">
        <ele>248</ele>
        <time>2022-08-22T20:35:03Z</time>
      </trkpt>
      <trkpt lat="46.40368" lon="4.74879">
        <ele>250</ele>
        <time>2022-08-22T20:35:13Z</time>
      </trkpt>
      <trkpt lat="46.40369" lon="4.74853">
        <ele>251</ele>
        <time>2022-08-22T20:35:17Z</time>
      </trkpt>
      <trkpt lat="46.40369" lon="4.74816">
        <ele>252</ele>
        <time>2022-08-22T20:35:23Z</time>
      </trkpt>
      <trkpt lat="46.40375" lon="4.74747">
        <ele>255</ele>
        <time>2022-08-22T20:35:34Z</time>
      </trkpt>
      <trkpt lat="46.40373" lon="4.7473">
        <ele>255</ele>
        <time>2022-08-22T20:35:37Z</time>
      </trkpt>
      <trkpt lat="46.40371" lon="4.74716">
        <ele>256</ele>
        <time>2022-08-22T20:35:40Z</time>
      </trkpt>
      <trkpt lat="46.40368" lon="4.74709">
        <ele>256</ele>
        <time>2022-08-22T20:35:41Z</time>
      </trkpt>
      <trkpt lat="46.40353" lon="4.74683">
        <ele>257</ele>
        <time>2022-08-22T20:35:46Z</time>
      </trkpt>
      <trkpt lat="46.40341" lon="4.74655">
        <ele>259</ele>
        <time>2022-08-22T20:35:52Z</time>
      </trkpt>
      <trkpt lat="46.40339" lon="4.74648">
        <ele>259</ele>
        <time>2022-08-22T20:35:53Z</time>
      </trkpt>
      <trkpt lat="46.40339" lon="4.74639">
        <ele>260</ele>
        <time>2022-08-22T20:35:54Z</time>
      </trkpt>
      <trkpt lat="46.40372" lon="4.7443">
        <ele>272</ele>
        <time>2022-08-22T20:36:29Z</time>
      </trkpt>
      <trkpt lat="46.40368" lon="4.74415">
        <ele>274</ele>
        <time>2022-08-22T20:36:31Z</time>
      </trkpt>
      <trkpt lat="46.40365" lon="4.74404">
        <ele>275</ele>
        <time>2022-08-22T20:36:33Z</time>
      </trkpt>
      <trkpt lat="46.40369" lon="4.74372">
        <ele>275</ele>
        <time>2022-08-22T20:36:39Z</time>
      </trkpt>
      <trkpt lat="46.40368" lon="4.74313">
        <ele>276</ele>
        <time>2022-08-22T20:36:48Z</time>
      </trkpt>
      <trkpt lat="46.40364" lon="4.74258">
        <ele>276</ele>
        <time>2022-08-22T20:36:57Z</time>
      </trkpt>
      <trkpt lat="46.40364" lon="4.74252">
        <ele>276</ele>
        <time>2022-08-22T20:36:58Z</time>
      </trkpt>
      <trkpt lat="46.40373" lon="4.74177">
        <ele>273</ele>
        <time>2022-08-22T20:37:10Z</time>
      </trkpt>
      <trkpt lat="46.40394" lon="4.74047">
        <ele>278</ele>
        <time>2022-08-22T20:37:32Z</time>
      </trkpt>
      <trkpt lat="46.40402" lon="4.74013">
        <ele>281</ele>
        <time>2022-08-22T20:37:37Z</time>
      </trkpt>
      <trkpt lat="46.40423" lon="4.73864">
        <ele>290</ele>
        <time>2022-08-22T20:38:02Z</time>
      </trkpt>
      <trkpt lat="46.40436" lon="4.73787">
        <ele>293</ele>
        <time>2022-08-22T20:38:15Z</time>
      </trkpt>
      <trkpt lat="46.40469" lon="4.73645">
        <ele>300</ele>
        <time>2022-08-22T20:38:39Z</time>
      </trkpt>
      <trkpt lat="46.40473" lon="4.73615">
        <ele>301</ele>
        <time>2022-08-22T20:38:44Z</time>
      </trkpt>
      <trkpt lat="46.40488" lon="4.73604">
        <ele>302</ele>
        <time>2022-08-22T20:38:48Z</time>
      </trkpt>
      <trkpt lat="46.40549" lon="4.7352">
        <ele>310</ele>
        <time>2022-08-22T20:39:07Z</time>
      </trkpt>
      <trkpt lat="46.40637" lon="4.73392">
        <ele>326</ele>
        <time>2022-08-22T20:39:36Z</time>
      </trkpt>
      <trkpt lat="46.40662" lon="4.7333">
        <ele>334</ele>
        <time>2022-08-22T20:39:48Z</time>
      </trkpt>
      <trkpt lat="46.40673" lon="4.73324">
        <ele>336</ele>
        <time>2022-08-22T20:39:51Z</time>
      </trkpt>
      <trkpt lat="46.4068" lon="4.73322">
        <ele>337</ele>
        <time>2022-08-22T20:39:52Z</time>
      </trkpt>
      <trkpt lat="46.4072" lon="4.73329">
        <ele>345</ele>
        <time>2022-08-22T20:40:02Z</time>
      </trkpt>
      <trkpt lat="46.40742" lon="4.73335">
        <ele>348</ele>
        <time>2022-08-22T20:40:07Z</time>
      </trkpt>
      <trkpt lat="46.40766" lon="4.73359">
        <ele>350</ele>
        <time>2022-08-22T20:40:14Z</time>
      </trkpt>
      <trkpt lat="46.40777" lon="4.73361">
        <ele>351</ele>
        <time>2022-08-22T20:40:16Z</time>
      </trkpt>
      <trkpt lat="46.40796" lon="4.73349">
        <ele>355</ele>
        <time>2022-08-22T20:40:21Z</time>
      </trkpt>
      <trkpt lat="46.40828" lon="4.73342">
        <ele>360</ele>
        <time>2022-08-22T20:40:29Z</time>
      </trkpt>
      <trkpt lat="46.40861" lon="4.73341">
        <ele>364</ele>
        <time>2022-08-22T20:40:37Z</time>
      </trkpt>
      <trkpt lat="46.40876" lon="4.73335">
        <ele>366</ele>
        <time>2022-08-22T20:40:40Z</time>
      </trkpt>
      <trkpt lat="46.40881" lon="4.73333">
        <ele>367</ele>
        <time>2022-08-22T20:40:41Z</time>
      </trkpt>
      <trkpt lat="46.40912" lon="4.73294">
        <ele>374</ele>
        <time>2022-08-22T20:40:51Z</time>
      </trkpt>
      <trkpt lat="46.40973" lon="4.73292">
        <ele>380</ele>
        <time>2022-08-22T20:41:05Z</time>
      </trkpt>
      <trkpt lat="46.40994" lon="4.73264">
        <ele>385</ele>
        <time>2022-08-22T20:41:12Z</time>
      </trkpt>
      <trkpt lat="46.41009" lon="4.73236">
        <ele>389</ele>
        <time>2022-08-22T20:41:18Z</time>
      </trkpt>
      <trkpt lat="46.41028" lon="4.7318">
        <ele>395</ele>
        <time>2022-08-22T20:41:28Z</time>
      </trkpt>
      <trkpt lat="46.41053" lon="4.73124">
        <ele>399</ele>
        <time>2022-08-22T20:41:38Z</time>
      </trkpt>
      <trkpt lat="46.41066" lon="4.73088">
        <ele>400</ele>
        <time>2022-08-22T20:41:45Z</time>
      </trkpt>
      <trkpt lat="46.4108" lon="4.73071">
        <ele>400</ele>
        <time>2022-08-22T20:41:49Z</time>
      </trkpt>
      <trkpt lat="46.41139" lon="4.73065">
        <ele>406</ele>
        <time>2022-08-22T20:42:03Z</time>
      </trkpt>
      <trkpt lat="46.41202" lon="4.73048">
        <ele>412</ele>
        <time>2022-08-22T20:42:18Z</time>
      </trkpt>
      <trkpt lat="46.41226" lon="4.73048">
        <ele>414</ele>
        <time>2022-08-22T20:42:24Z</time>
      </trkpt>
      <trkpt lat="46.41278" lon="4.73043">
        <ele>420</ele>
        <time>2022-08-22T20:42:36Z</time>
      </trkpt>
      <trkpt lat="46.41358" lon="4.73029">
        <ele>426</ele>
        <time>2022-08-22T20:42:55Z</time>
      </trkpt>
      <trkpt lat="46.41384" lon="4.7302">
        <ele>428</ele>
        <time>2022-08-22T20:43:01Z</time>
      </trkpt>
      <trkpt lat="46.41427" lon="4.72991">
        <ele>431</ele>
        <time>2022-08-22T20:43:12Z</time>
      </trkpt>
      <trkpt lat="46.41439" lon="4.72983">
        <ele>431</ele>
        <time>2022-08-22T20:43:15Z</time>
      </trkpt>
      <trkpt lat="46.41463" lon="4.72961">
        <ele>431</ele>
        <time>2022-08-22T20:43:22Z</time>
      </trkpt>
      <trkpt lat="46.41482" lon="4.72958">
        <ele>431</ele>
        <time>2022-08-22T20:43:26Z</time>
      </trkpt>
      <trkpt lat="46.41504" lon="4.72957">
        <ele>432</ele>
        <time>2022-08-22T20:43:31Z</time>
      </trkpt>
      <trkpt lat="46.41556" lon="4.72946">
        <ele>433</ele>
        <time>2022-08-22T20:43:43Z</time>
      </trkpt>
      <trkpt lat="46.4157" lon="4.72947">
        <ele>433</ele>
        <time>2022-08-22T20:43:47Z</time>
      </trkpt>
      <trkpt lat="46.4158" lon="4.72953">
        <ele>433</ele>
        <time>2022-08-22T20:43:49Z</time>
      </trkpt>
      <trkpt lat="46.41587" lon="4.72951">
        <ele>433</ele>
        <time>2022-08-22T20:43:51Z</time>
      </trkpt>
      <trkpt lat="46.41646" lon="4.72969">
        <ele>434</ele>
        <time>2022-08-22T20:44:05Z</time>
      </trkpt>
      <trkpt lat="46.41695" lon="4.72998">
        <ele>436</ele>
        <time>2022-08-22T20:44:17Z</time>
      </trkpt>
      <trkpt lat="46.4173" lon="4.73013">
        <ele>436</ele>
        <time>2022-08-22T20:44:26Z</time>
      </trkpt>
      <trkpt lat="46.41743" lon="4.73025">
        <ele>436</ele>
        <time>2022-08-22T20:44:30Z</time>
      </trkpt>
      <trkpt lat="46.41749" lon="4.73042">
        <ele>436</ele>
        <time>2022-08-22T20:44:33Z</time>
      </trkpt>
      <trkpt lat="46.41766" lon="4.73058">
        <ele>437</ele>
        <time>2022-08-22T20:44:37Z</time>
      </trkpt>
      <trkpt lat="46.4178" lon="4.73065">
        <ele>438</ele>
        <time>2022-08-22T20:44:41Z</time>
      </trkpt>
      <trkpt lat="46.41821" lon="4.73076">
        <ele>441</ele>
        <time>2022-08-22T20:44:51Z</time>
      </trkpt>
      <trkpt lat="46.41849" lon="4.73055">
        <ele>443</ele>
        <time>2022-08-22T20:44:58Z</time>
      </trkpt>
      <trkpt lat="46.41882" lon="4.7302">
        <ele>445</ele>
        <time>2022-08-22T20:45:07Z</time>
      </trkpt>
      <trkpt lat="46.41948" lon="4.72988">
        <ele>449</ele>
        <time>2022-08-22T20:45:24Z</time>
      </trkpt>
      <trkpt lat="46.42007" lon="4.72946">
        <ele>451</ele>
        <time>2022-08-22T20:45:39Z</time>
      </trkpt>
      <trkpt lat="46.4206" lon="4.7293">
        <ele>452</ele>
        <time>2022-08-22T20:45:52Z</time>
      </trkpt>
      <trkpt lat="46.42074" lon="4.72919">
        <ele>452</ele>
        <time>2022-08-22T20:45:55Z</time>
      </trkpt>
      <trkpt lat="46.42132" lon="4.72857">
        <ele>453</ele>
        <time>2022-08-22T20:46:12Z</time>
      </trkpt>
      <trkpt lat="46.42151" lon="4.72814">
        <ele>455</ele>
        <time>2022-08-22T20:46:20Z</time>
      </trkpt>
      <trkpt lat="46.42158" lon="4.72793">
        <ele>456</ele>
        <time>2022-08-22T20:46:24Z</time>
      </trkpt>
      <trkpt lat="46.42167" lon="4.7275">
        <ele>460</ele>
        <time>2022-08-22T20:46:31Z</time>
      </trkpt>
      <trkpt lat="46.42167" lon="4.72689">
        <ele>463</ele>
        <time>2022-08-22T20:46:41Z</time>
      </trkpt>
      <trkpt lat="46.4218" lon="4.72642">
        <ele>464</ele>
        <time>2022-08-22T20:46:49Z</time>
      </trkpt>
      <trkpt lat="46.42198" lon="4.72594">
        <ele>465</ele>
        <time>2022-08-22T20:46:58Z</time>
      </trkpt>
      <trkpt lat="46.42232" lon="4.72543">
        <ele>471</ele>
        <time>2022-08-22T20:47:10Z</time>
      </trkpt>
      <trkpt lat="46.42297" lon="4.72469">
        <ele>476</ele>
        <time>2022-08-22T20:47:29Z</time>
      </trkpt>
      <trkpt lat="46.42332" lon="4.7243">
        <ele>481</ele>
        <time>2022-08-22T20:47:39Z</time>
      </trkpt>
      <trkpt lat="46.42362" lon="4.72404">
        <ele>485</ele>
        <time>2022-08-22T20:47:47Z</time>
      </trkpt>
      <trkpt lat="46.42401" lon="4.72378">
        <ele>487</ele>
        <time>2022-08-22T20:47:57Z</time>
      </trkpt>
      <trkpt lat="46.42443" lon="4.72346">
        <ele>490</ele>
        <time>2022-08-22T20:48:08Z</time>
      </trkpt>
      <trkpt lat="46.42506" lon="4.72335">
        <ele>489</ele>
        <time>2022-08-22T20:48:23Z</time>
      </trkpt>
      <trkpt lat="46.42549" lon="4.7233">
        <ele>484</ele>
        <time>2022-08-22T20:48:33Z</time>
      </trkpt>
      <trkpt lat="46.42561" lon="4.72386">
        <ele>478</ele>
        <time>2022-08-22T20:48:43Z</time>
      </trkpt>
      <trkpt lat="46.42572" lon="4.72442">
        <ele>473</ele>
        <time>2022-08-22T20:48:52Z</time>
      </trkpt>
      <trkpt lat="46.42634" lon="4.72461">
        <ele>463</ele>
        <time>2022-08-22T20:49:07Z</time>
      </trkpt>
      <trkpt lat="46.42655" lon="4.72506">
        <ele>458</ele>
        <time>2022-08-22T20:49:16Z</time>
      </trkpt>
      <trkpt lat="46.4263" lon="4.72553">
        <ele>452</ele>
        <time>2022-08-22T20:49:25Z</time>
      </trkpt>
      <trkpt lat="46.42531" lon="4.72601">
        <ele>446</ele>
        <time>2022-08-22T20:49:50Z</time>
      </trkpt>
      <trkpt lat="46.42528" lon="4.72652">
        <ele>436</ele>
        <time>2022-08-22T20:49:58Z</time>
      </trkpt>
      <trkpt lat="46.42568" lon="4.72708">
        <ele>426</ele>
        <time>2022-08-22T20:50:11Z</time>
      </trkpt>
      <trkpt lat="46.42642" lon="4.72757">
        <ele>416</ele>
        <time>2022-08-22T20:50:30Z</time>
      </trkpt>
      <trkpt lat="46.42619" lon="4.72843">
        <ele>412</ele>
        <time>2022-08-22T20:50:45Z</time>
      </trkpt>
      <trkpt lat="46.42609" lon="4.72905">
        <ele>415</ele>
        <time>2022-08-22T20:50:55Z</time>
      </trkpt>
      <trkpt lat="46.42795" lon="4.72929">
        <ele>409</ele>
        <time>2022-08-22T20:51:39Z</time>
      </trkpt>
      <trkpt lat="46.42831" lon="4.72907">
        <ele>406</ele>
        <time>2022-08-22T20:51:48Z</time>
      </trkpt>
      <trkpt lat="46.42856" lon="4.72931">
        <ele>405</ele>
        <time>2022-08-22T20:51:55Z</time>
      </trkpt>
      <trkpt lat="46.42876" lon="4.72956">
        <ele>404</ele>
        <time>2022-08-22T20:52:01Z</time>
      </trkpt>
      <trkpt lat="46.42919" lon="4.73012">
        <ele>398</ele>
        <time>2022-08-22T20:52:14Z</time>
      </trkpt>
      <trkpt lat="46.4294" lon="4.73172">
        <ele>388</ele>
        <time>2022-08-22T20:52:41Z</time>
      </trkpt>
      <trkpt lat="46.42941" lon="4.73177">
        <ele>388</ele>
        <time>2022-08-22T20:52:41Z</time>
      </trkpt>
      <trkpt lat="46.42927" lon="4.73202">
        <ele>385</ele>
        <time>2022-08-22T20:52:47Z</time>
      </trkpt>
      <trkpt lat="46.42903" lon="4.73214">
        <ele>384</ele>
        <time>2022-08-22T20:52:53Z</time>
      </trkpt>
      <trkpt lat="46.42853" lon="4.73234">
        <ele>379</ele>
        <time>2022-08-22T20:53:05Z</time>
      </trkpt>
      <trkpt lat="46.42828" lon="4.7324">
        <ele>378</ele>
        <time>2022-08-22T20:53:11Z</time>
      </trkpt>
      <trkpt lat="46.42808" lon="4.73255">
        <ele>377</ele>
        <time>2022-08-22T20:53:16Z</time>
      </trkpt>
      <trkpt lat="46.42791" lon="4.73282">
        <ele>375</ele>
        <time>2022-08-22T20:53:22Z</time>
      </trkpt>
      <trkpt lat="46.42781" lon="4.73312">
        <ele>372</ele>
        <time>2022-08-22T20:53:27Z</time>
      </trkpt>
      <trkpt lat="46.42776" lon="4.73335">
        <ele>370</ele>
        <time>2022-08-22T20:53:31Z</time>
      </trkpt>
      <trkpt lat="46.42766" lon="4.73352">
        <ele>371</ele>
        <time>2022-08-22T20:53:35Z</time>
      </trkpt>
      <trkpt lat="46.42757" lon="4.73375">
        <ele>372</ele>
        <time>2022-08-22T20:53:39Z</time>
      </trkpt>
      <trkpt lat="46.42754" lon="4.73391">
        <ele>372</ele>
        <time>2022-08-22T20:53:41Z</time>
      </trkpt>
      <trkpt lat="46.42754" lon="4.7342">
        <ele>373</ele>
        <time>2022-08-22T20:53:46Z</time>
      </trkpt>
      <trkpt lat="46.42775" lon="4.73538">
        <ele>374</ele>
        <time>2022-08-22T20:54:06Z</time>
      </trkpt>
      <trkpt lat="46.42785" lon="4.73594">
        <ele>376</ele>
        <time>2022-08-22T20:54:15Z</time>
      </trkpt>
      <trkpt lat="46.42794" lon="4.73657">
        <ele>378</ele>
        <time>2022-08-22T20:54:25Z</time>
      </trkpt>
      <trkpt lat="46.42796" lon="4.73695">
        <ele>379</ele>
        <time>2022-08-22T20:54:32Z</time>
      </trkpt>
      <trkpt lat="46.42795" lon="4.7372">
        <ele>380</ele>
        <time>2022-08-22T20:54:36Z</time>
      </trkpt>
      <trkpt lat="46.42765" lon="4.73964">
        <ele>378</ele>
        <time>2022-08-22T20:55:16Z</time>
      </trkpt>
      <trkpt lat="46.42764" lon="4.73996">
        <ele>376</ele>
        <time>2022-08-22T20:55:21Z</time>
      </trkpt>
      <trkpt lat="46.42766" lon="4.74015">
        <ele>377</ele>
        <time>2022-08-22T20:55:24Z</time>
      </trkpt>
      <trkpt lat="46.4277" lon="4.74031">
        <ele>377</ele>
        <time>2022-08-22T20:55:26Z</time>
      </trkpt>
      <trkpt lat="46.42778" lon="4.74058">
        <ele>378</ele>
        <time>2022-08-22T20:55:31Z</time>
      </trkpt>
      <trkpt lat="46.42842" lon="4.7418">
        <ele>378</ele>
        <time>2022-08-22T20:55:56Z</time>
      </trkpt>
      <trkpt lat="46.42897" lon="4.74293">
        <ele>374</ele>
        <time>2022-08-22T20:56:18Z</time>
      </trkpt>
      <trkpt lat="46.42901" lon="4.74299">
        <ele>374</ele>
        <time>2022-08-22T20:56:20Z</time>
      </trkpt>
      <trkpt lat="46.4292" lon="4.74314">
        <ele>375</ele>
        <time>2022-08-22T20:56:25Z</time>
      </trkpt>
      <trkpt lat="46.4293" lon="4.74349">
        <ele>376</ele>
        <time>2022-08-22T20:56:31Z</time>
      </trkpt>
      <trkpt lat="46.42985" lon="4.74374">
        <ele>383</ele>
        <time>2022-08-22T20:56:44Z</time>
      </trkpt>
      <trkpt lat="46.4301" lon="4.74378">
        <ele>386</ele>
        <time>2022-08-22T20:56:50Z</time>
      </trkpt>
      <trkpt lat="46.43044" lon="4.74412">
        <ele>391</ele>
        <time>2022-08-22T20:57:00Z</time>
      </trkpt>
      <trkpt lat="46.43081" lon="4.7443">
        <ele>396</ele>
        <time>2022-08-22T20:57:09Z</time>
      </trkpt>
      <trkpt lat="46.43089" lon="4.74463">
        <ele>399</ele>
        <time>2022-08-22T20:57:14Z</time>
      </trkpt>
      <trkpt lat="46.43129" lon="4.74476">
        <ele>400</ele>
        <time>2022-08-22T20:57:24Z</time>
      </trkpt>
      <trkpt lat="46.43219" lon="4.74577">
        <ele>405</ele>
        <time>2022-08-22T20:57:51Z</time>
      </trkpt>
      <trkpt lat="46.43254" lon="4.74621">
        <ele>405</ele>
        <time>2022-08-22T20:58:01Z</time>
      </trkpt>
      <trkpt lat="46.43303" lon="4.74642">
        <ele>397</ele>
        <time>2022-08-22T20:58:13Z</time>
      </trkpt>
      <trkpt lat="46.43342" lon="4.74679">
        <ele>395</ele>
        <time>2022-08-22T20:58:24Z</time>
      </trkpt>
      <trkpt lat="46.43364" lon="4.74688">
        <ele>389</ele>
        <time>2022-08-22T20:58:29Z</time>
      </trkpt>
      <trkpt lat="46.43442" lon="4.74759">
        <ele>378</ele>
        <time>2022-08-22T20:58:51Z</time>
      </trkpt>
      <trkpt lat="46.43486" lon="4.74811">
        <ele>370</ele>
        <time>2022-08-22T20:59:04Z</time>
      </trkpt>
      <trkpt lat="46.43505" lon="4.74884">
        <ele>370</ele>
        <time>2022-08-22T20:59:17Z</time>
      </trkpt>
      <trkpt lat="46.43505" lon="4.74909">
        <ele>371</ele>
        <time>2022-08-22T20:59:21Z</time>
      </trkpt>
      <trkpt lat="46.43532" lon="4.74992">
        <ele>361</ele>
        <time>2022-08-22T20:59:36Z</time>
      </trkpt>
      <trkpt lat="46.43572" lon="4.75066">
        <ele>351</ele>
        <time>2022-08-22T20:59:51Z</time>
      </trkpt>
      <trkpt lat="46.43563" lon="4.751">
        <ele>350</ele>
        <time>2022-08-22T20:59:57Z</time>
      </trkpt>
      <trkpt lat="46.43572" lon="4.75168">
        <ele>342</ele>
        <time>2022-08-22T21:00:08Z</time>
      </trkpt>
      <trkpt lat="46.43571" lon="4.75222">
        <ele>337</ele>
        <time>2022-08-22T21:00:16Z</time>
      </trkpt>
      <trkpt lat="46.43599" lon="4.75226">
        <ele>334</ele>
        <time>2022-08-22T21:00:23Z</time>
      </trkpt>
      <trkpt lat="46.43613" lon="4.75245">
        <ele>331</ele>
        <time>2022-08-22T21:00:27Z</time>
      </trkpt>
      <trkpt lat="46.43606" lon="4.75334">
        <ele>321</ele>
        <time>2022-08-22T21:00:42Z</time>
      </trkpt>
      <trkpt lat="46.43574" lon="4.75372">
        <ele>317</ele>
        <time>2022-08-22T21:00:52Z</time>
      </trkpt>
      <trkpt lat="46.43573" lon="4.75381">
        <ele>315</ele>
        <time>2022-08-22T21:00:53Z</time>
      </trkpt>
      <trkpt lat="46.43561" lon="4.75419">
        <ele>309</ele>
        <time>2022-08-22T21:01:00Z</time>
      </trkpt>
      <trkpt lat="46.43545" lon="4.75452">
        <ele>302</ele>
        <time>2022-08-22T21:01:06Z</time>
      </trkpt>
      <trkpt lat="46.43523" lon="4.75483">
        <ele>297</ele>
        <time>2022-08-22T21:01:13Z</time>
      </trkpt>
      <trkpt lat="46.435" lon="4.75511">
        <ele>292</ele>
        <time>2022-08-22T21:01:20Z</time>
      </trkpt>
      <trkpt lat="46.43464" lon="4.75546">
        <ele>283</ele>
        <time>2022-08-22T21:01:31Z</time>
      </trkpt>
      <trkpt lat="46.43455" lon="4.75536">
        <ele>283</ele>
        <time>2022-08-22T21:01:33Z</time>
      </trkpt>
      <trkpt lat="46.43423" lon="4.75593">
        <ele>274</ele>
        <time>2022-08-22T21:01:45Z</time>
      </trkpt>
      <trkpt lat="46.43425" lon="4.75599">
        <ele>273</ele>
        <time>2022-08-22T21:01:46Z</time>
      </trkpt>
      <trkpt lat="46.43427" lon="4.7561">
        <ele>273</ele>
        <time>2022-08-22T21:01:48Z</time>
      </trkpt>
      <trkpt lat="46.4344" lon="4.75633">
        <ele>272</ele>
        <time>2022-08-22T21:01:53Z</time>
      </trkpt>
      <trkpt lat="46.43446" lon="4.75654">
        <ele>270</ele>
        <time>2022-08-22T21:01:56Z</time>
      </trkpt>
      <trkpt lat="46.43386" lon="4.7573">
        <ele>263</ele>
        <time>2022-08-22T21:02:15Z</time>
      </trkpt>
      <trkpt lat="46.43352" lon="4.75761">
        <ele>260</ele>
        <time>2022-08-22T21:02:24Z</time>
      </trkpt>
      <trkpt lat="46.43343" lon="4.75781">
        <ele>259</ele>
        <time>2022-08-22T21:02:28Z</time>
      </trkpt>
      <trkpt lat="46.43313" lon="4.75837">
        <ele>255</ele>
        <time>2022-08-22T21:02:40Z</time>
      </trkpt>
      <trkpt lat="46.43303" lon="4.75867">
        <ele>253</ele>
        <time>2022-08-22T21:02:45Z</time>
      </trkpt>
      <trkpt lat="46.43274" lon="4.75973">
        <ele>251</ele>
        <time>2022-08-22T21:03:03Z</time>
      </trkpt>
      <trkpt lat="46.43244" lon="4.76088">
        <ele>249</ele>
        <time>2022-08-22T21:03:23Z</time>
      </trkpt>
      <trkpt lat="46.43249" lon="4.76111">
        <ele>248</ele>
        <time>2022-08-22T21:03:27Z</time>
      </trkpt>
      <trkpt lat="46.4326" lon="4.76127">
        <ele>247</ele>
        <time>2022-08-22T21:03:31Z</time>
      </trkpt>
      <trkpt lat="46.43276" lon="4.76142">
        <ele>246</ele>
        <time>2022-08-22T21:03:35Z</time>
      </trkpt>
      <trkpt lat="46.43322" lon="4.76179">
        <ele>244</ele>
        <time>2022-08-22T21:03:47Z</time>
      </trkpt>
      <trkpt lat="46.43333" lon="4.76195">
        <ele>243</ele>
        <time>2022-08-22T21:03:51Z</time>
      </trkpt>
      <trkpt lat="46.43329" lon="4.76213">
        <ele>242</ele>
        <time>2022-08-22T21:03:54Z</time>
      </trkpt>
      <trkpt lat="46.43327" lon="4.76299">
        <ele>240</ele>
        <time>2022-08-22T21:04:08Z</time>
      </trkpt>
      <trkpt lat="46.43328" lon="4.76319">
        <ele>240</ele>
        <time>2022-08-22T21:04:11Z</time>
      </trkpt>
      <trkpt lat="46.43333" lon="4.76328">
        <ele>240</ele>
        <time>2022-08-22T21:04:13Z</time>
      </trkpt>
      <trkpt lat="46.43334" lon="4.76331">
        <ele>240</ele>
        <time>2022-08-22T21:04:14Z</time>
      </trkpt>
      <trkpt lat="46.43352" lon="4.76319">
        <ele>240</ele>
        <time>2022-08-22T21:04:18Z</time>
      </trkpt>
      <trkpt lat="46.4336" lon="4.76315">
        <ele>240</ele>
        <time>2022-08-22T21:04:20Z</time>
      </trkpt>
      <trkpt lat="46.43375" lon="4.76311">
        <ele>240</ele>
        <time>2022-08-22T21:04:24Z</time>
      </trkpt>
      <trkpt lat="46.43372" lon="4.76462">
        <ele>243</ele>
        <time>2022-08-22T21:04:48Z</time>
      </trkpt>
      <trkpt lat="46.43334" lon="4.76461">
        <ele>243</ele>
        <time>2022-08-22T21:04:57Z</time>
      </trkpt>
      <trkpt lat="46.43168" lon="4.76434">
        <ele>239</ele>
        <time>2022-08-22T21:05:36Z</time>
      </trkpt>
      <trkpt lat="46.43133" lon="4.7643">
        <ele>238</ele>
        <time>2022-08-22T21:05:44Z</time>
      </trkpt>
      <trkpt lat="46.431" lon="4.76427">
        <ele>238</ele>
        <time>2022-08-22T21:05:52Z</time>
      </trkpt>
      <trkpt lat="46.43095" lon="4.76375">
        <ele>237</ele>
        <time>2022-08-22T21:06:00Z</time>
      </trkpt>
    </trkseg>
  </trk>
</gpx>